Wake-n-waves — 9 — position and weather

sailwx.info

Track history (hours):
 
Tides and Currents Weather Stations Pressure Air Temp Water Temp Dewpoint Dewpoint Depression Visibility Wind Speed Wind Dir Waves Ship Positions

Wake-n-waves

Last reported at 2017-Oct-22 07:59 UTC. Time now 2017-Oct-22 08:02 UTC.
Position N 40°43' W 074°03'.

Length 17 m.

Type: Pleasure craft. MMSI: 338025702.

Date/timePositionNaut miles runAvg speedWind from/ knotsBaromVisibWave heightAir tempDewpointWater temp
2017-Oct-22 07:59N 40°43' W 074°03'9506360244.6
2017-Oct-22 07:58N 31°24' E 121°36'950620060.5
2017-Oct-22 07:29N 40°43' W 074°03'9506124448.1
2017-Oct-22 07:25N 31°24' E 121°36'44614331.2
2017-Oct-22 07:23N 38°50' E 121°41'902722967.0
2017-Oct-22 06:59N 40°43' W 074°03'9506364077.0
2017-Oct-22 06:58N 31°24' E 121°36'44612260.6
2017-Oct-22 06:56N 38°50' E 121°40'2 3.6
2017-Oct-22 06:30N 38°49' E 121°39'9026955647.5
2017-Oct-22 06:29N 40°43' W 074°03'9506360244.4
2017-Oct-22 06:28N 31°24' E 121°36'445957.4
2017-Oct-22 06:00N 38°49' E 121°36'9025928243.4
2017-Oct-22 05:59N 40°43' W 074°03'9506364077.0
2017-Oct-22 05:58N 31°24' E 121°36'445979.2
2017-Oct-22 05:30N 38°49' E 121°36'9024470795.7
2017-Oct-22 05:29N 40°43' W 074°03'9506367991.6
2017-Oct-22 05:28N 31°24' E 121°36'950620037.0
2017-Oct-22 04:59N 40°43' W 074°03'9506371989.3
2017-Oct-22 04:58N 31°24' E 121°36'4451871.3
2017-Oct-22 04:43N 38°49' E 121°40'902738231.5
2017-Oct-22 04:29N 40°43' W 074°03'9506367989.5
2017-Oct-22 04:28N 31°24' E 121°36'4452492.0
2017-Oct-22 04:17N 38°49' E 121°39'902730540.9
2017-Oct-22 03:59N 40°43' W 074°03'9506360244.2
2017-Oct-22 03:58N 31°24' E 121°36'44580117.2
2017-Oct-22 03:57N 38°49' E 121°38'1 3.2
2017-Oct-22 03:30N 38°49' E 121°36'90241203193.0
2017-Oct-22 03:29N 40°43' W 074°03'9506364076.8
2017-Oct-22 03:28N 31°24' E 121°36'445905.1
2017-Oct-22 02:58N 38°49' E 121°34'44551676.0
2017-Oct-22 02:58N 31°24' E 121°36'950611407739.1
2017-Oct-22 02:58N 40°43' W 074°03'950619044.7
2017-Oct-22 02:28N 31°24' E 121°36'950634223351.3
2017-Oct-22 02:28N 40°43' W 074°03'9022104769.0
2017-Oct-22 02:22N 38°49' E 121°32'2 4.4
2017-Oct-22 02:00N 38°50' E 121°34'44610562.9
2017-Oct-22 01:58N 31°24' E 121°36'950617111672.9
2017-Oct-22 01:58N 40°43' W 074°03'950619044.7
2017-Oct-22 01:28N 31°24' E 121°36'950618981.3
2017-Oct-22 00:58N 40°43' W 074°03'9506192266.1
2017-Oct-22 00:55N 31°24' E 121°36'0 0.0
2017-Oct-22 00:28N 31°24' E 121°36'950617111684.4
2017-Oct-22 00:28N 40°43' W 074°03'0 0.0
2017-Oct-21 23:58N 40°43' W 074°03'950634223345.8
2017-Oct-21 23:58N 31°24' E 121°36'0 0.0
2017-Oct-21 23:28N 31°24' E 121°36'950634223368.7
2017-Oct-21 23:28N 40°43' W 074°03'0 0.0
2017-Oct-21 22:58N 40°43' W 074°03'950634223368.7
2017-Oct-21 22:58N 31°24' E 121°36'0 0.0
2017-Oct-21 22:28N 31°24' E 121°36'950663376.6
2017-Oct-21 22:19N 40°43' W 074°03'950627161.4
2017-Oct-21 21:58N 31°24' E 121°36'950634223368.7
2017-Oct-21 21:58N 40°43' W 074°03'0 0.0
2017-Oct-21 21:28N 40°43' W 074°03'950634223368.7
2017-Oct-21 21:28N 31°24' E 121°36'950619044.7
2017-Oct-21 20:58N 40°43' W 074°03'950611407789.6
2017-Oct-21 20:58N 31°24' E 121°36'950617293.3
2017-Oct-21 20:25N 40°43' W 074°03'950634223368.7
2017-Oct-21 20:25N 31°24' E 121°36'950622830.8
2017-Oct-21 20:00N 40°43' W 074°03'9506282837.9
2017-Oct-21 19:58N 31°24' E 121°36'950620358.9
2017-Oct-21 19:30N 40°43' W 074°03'9506287590.1
2017-Oct-21 19:28N 31°24' E 121°36'950620383.1
2017-Oct-21 19:00N 40°43' W 074°03'9506282837.8
2017-Oct-21 18:58N 31°24' E 121°36'0 0.0
2017-Oct-21 18:28N 31°24' E 121°36'9506600410.0
2017-Oct-21 18:27N 40°43' W 074°03'0 0.0
2017-Oct-21 18:00N 40°43' W 074°03'9506282836.5
2017-Oct-21 17:58N 31°24' E 121°36'950620407.4
2017-Oct-21 17:30N 40°43' W 074°03'9506278237.5
2017-Oct-21 17:28N 31°24' E 121°36'950620407.4
2017-Oct-21 17:00N 40°43' W 074°03'9506280518.0
2017-Oct-21 16:58N 31°24' E 121°36'0 0.0
2017-Oct-21 16:28N 31°24' E 121°36'9506590055.1
2017-Oct-21 16:27N 40°43' W 074°03'0 0.0
2017-Oct-21 16:00N 40°43' W 074°03'9506280518.0
2017-Oct-21 15:58N 31°24' E 121°36'950620419.6
2017-Oct-21 15:30N 40°43' W 074°03'9506278237.2
2017-Oct-21 15:28N 31°24' E 121°36'950620419.6
2017-Oct-21 15:00N 40°43' W 074°03'9506275993.3
2017-Oct-21 14:58N 31°24' E 121°36'0 0.1
2017-Oct-21 14:28N 31°24' E 121°36'950614295.5
2017-Oct-21 13:48N 40°43' W 074°03'0 0.0
2017-Oct-21 13:27N 40°43' W 074°03'9506280519.4
2017-Oct-21 13:25N 31°24' E 121°36'1 2.4
2017-Oct-21 13:00N 31°23' E 121°36'9508167784.6
2017-Oct-21 12:57N 40°43' W 074°03'0 0.0
2017-Oct-21 12:30N 40°43' W 074°03'9506590058.5
2017-Oct-21 12:29N 31°23' E 121°34'950719646.0
2017-Oct-21 12:00N 40°43' W 074°03'9507590060.4
2017-Oct-21 11:59N 31°23' E 121°34'950719634.8
2017-Oct-21 11:30N 40°43' W 074°03'9507590059.7
2017-Oct-21 11:29N 31°23' E 121°34'0 0.0
2017-Oct-21 10:59N 31°23' E 121°34'9507114078.3
2017-Oct-21 10:54N 40°43' W 074°03'0 0.0
2017-Oct-21 10:30N 40°43' W 074°03'9507570391.4
2017-Oct-21 10:29N 31°23' E 121°34'950719657.4
2017-Oct-21 10:00N 40°43' W 074°03'9507580059.0
2017-Oct-21 09:59N 31°23' E 121°34'950719680.0
2017-Oct-21 09:30N 40°43' W 074°03'950781484.5
2017-Oct-21 09:23N 31°23' E 121°34'950724835.6
2017-Oct-21 09:00N 40°43' W 074°03'950781290.9
2017-Oct-21 08:53N 31°23' E 121°34'950724763.7
2017-Oct-21 08:30N 40°43' W 074°03'9507580059.0
2017-Oct-21 08:29N 31°23' E 121°34'950719657.4
2017-Oct-21 08:00N 40°43' W 074°03'9507580059.3
2017-Oct-21 07:59N 31°23' E 121°34'950719668.7
2017-Oct-21 07:30N 40°43' W 074°03'9507110759.6
2017-Oct-21 07:24N 31°23' E 121°35'950722923.5
2017-Oct-21 07:00N 40°43' W 074°03'9507388920.4
2017-Oct-21 06:58N 31°24' E 121°36'950719991.2
2017-Oct-21 06:30N 40°43' W 074°03'950742410.1
2017-Oct-21 06:16N 31°24' E 121°36'950734501.0
2017-Oct-21 06:00N 40°43' W 074°03'9507384550.8
2017-Oct-21 05:58N 31°24' E 121°36'950719991.3
2017-Oct-21 05:30N 40°43' W 074°03'9507368008.8
2017-Oct-21 05:28N 31°24' E 121°36'950720049.7
2017-Oct-21 05:00N 40°43' W 074°03'9507384548.1
2017-Oct-21 04:58N 31°24' E 121°36'950720002.8
2017-Oct-21 04:30N 40°43' W 074°03'9507393388.0
2017-Oct-21 04:28N 31°24' E 121°36'950719979.4
2017-Oct-21 04:00N 40°43' W 074°03'9507376096.2
2017-Oct-21 03:58N 31°24' E 121°36'950720037.9
2017-Oct-21 03:30N 40°43' W 074°03'9507124907.8
2017-Oct-21 03:25N 31°24' E 121°36'950722413.1
2017-Oct-21 03:00N 40°43' W 074°03'9507384548.3
2017-Oct-21 02:58N 31°24' E 121°36'950720014.5
2017-Oct-21 02:30N 40°43' W 074°03'9507364096.0
2017-Oct-21 02:28N 31°24' E 121°36'950720049.8
2017-Oct-21 02:00N 40°43' W 074°03'9507388920.4
2017-Oct-21 01:58N 31°24' E 121°36'950720002.9
2017-Oct-21 01:30N 40°43' W 074°03'9507380277.6
2017-Oct-21 01:28N 31°24' E 121°36'950720002.9
2017-Oct-21 01:00N 40°43' W 074°03'9507368010.3
2017-Oct-21 00:58N 31°24' E 121°36'950720061.5
2017-Oct-21 00:30N 40°43' W 074°03'9507364097.1
2017-Oct-21 00:28N 31°24' E 121°36'950720061.6
2017-Oct-21 00:00N 40°43' W 074°03'9507380279.2
2017-Oct-20 23:58N 31°24' E 121°36'950720049.9
2017-Oct-20 23:30N 40°43' W 074°03'9507349236.0
2017-Oct-20 23:28N 31°24' E 121°36'950720097.0
2017-Oct-20 23:00N 40°43' W 074°03'9507372010.4
2017-Oct-20 22:58N 31°24' E 121°36'950720038.0
2017-Oct-20 22:30N 40°43' W 074°03'9507372010.6
2017-Oct-20 22:28N 31°24' E 121°36'950720014.6
2017-Oct-20 22:00N 40°43' W 074°03'9507380277.5
2017-Oct-20 21:58N 31°24' E 121°36'950720014.6
2017-Oct-20 21:30N 40°43' W 074°03'950775886.9
2017-Oct-20 21:22N 31°24' E 121°36'950725370.6
2017-Oct-20 21:00N 40°43' W 074°03'9507372010.6
2017-Oct-20 20:58N 31°24' E 121°36'950720038.0
2017-Oct-20 20:30N 40°43' W 074°03'9507376098.6
2017-Oct-20 20:28N 31°24' E 121°36'950719490.3
2017-Oct-20 19:59N 40°43' W 074°03'9507456332.7
2017-Oct-20 19:58N 31°24' E 121°36'950719840.6
2017-Oct-20 19:29N 40°43' W 074°03'9507450328.3
2017-Oct-20 19:28N 31°24' E 121°36'950719852.1
2017-Oct-20 18:59N 40°43' W 074°03'9507450328.3
2017-Oct-20 18:58N 31°24' E 121°36'950719852.1
2017-Oct-20 18:29N 40°43' W 074°03'950755560.0
2017-Oct-20 18:19N 31°24' E 121°36'950728955.1
2017-Oct-20 17:59N 40°43' W 074°03'9507444480.0
2017-Oct-20 17:58N 31°24' E 121°36'950719852.1
2017-Oct-20 17:29N 40°43' W 074°03'9507450326.3
2017-Oct-20 17:28N 31°24' E 121°36'0 1.1
2017-Oct-20 17:00N 31°23' E 121°36'9507475345.0
2017-Oct-20 16:59N 40°43' W 074°03'0 0.0
2017-Oct-20 16:29N 40°43' W 074°03'0 0.0
2017-Oct-20 15:59N 40°43' W 074°03'0 0.0
2017-Oct-20 15:29N 40°43' W 074°03'9512259424.8
2017-Oct-20 15:27N 31°21' E 121°39'0 1.0
2017-Oct-20 14:59N 31°20' E 121°39'951334246219.2
2017-Oct-20 14:59N 40°43' W 074°03'948822711.1
2017-Oct-20 14:34N 31°31' E 121°23'9488115396.8
2017-Oct-20 14:29N 40°43' W 074°03'949219787.0
2017-Oct-20 14:00N 31°30' E 121°26'15751.5
2017-Oct-20 13:59N 31°20' E 121°39'26171.0
2017-Oct-20 13:50N 31°14' E 121°09'2166.8
2017-Oct-20 13:30N 31°28' E 121°28'94955697126.4
2017-Oct-20 13:30N 40°43' W 074°03'94972442093.3
2017-Oct-20 13:30N 31°13' E 121°09'27377.8
2017-Oct-20 13:26N 31°20' E 121°39'2764.2
2017-Oct-20 13:01N 31°11' E 121°09'27997.8
2017-Oct-20 12:59N 31°20' E 121°39'95131369848.8
2017-Oct-20 12:58N 40°43' W 074°03'949868523.5
2017-Oct-20 12:50N 31°27' E 121°29'1 3.2
2017-Oct-20 12:30N 31°26' E 121°30'9621.1
2017-Oct-20 12:29N 31°20' E 121°39'95131426925.8
2017-Oct-20 12:28N 40°43' W 074°03'951319261.1
2017-Oct-20 11:59N 31°20' E 121°39'95131630771.3
2017-Oct-20 11:59N 40°43' W 074°03'95022280579.3
2017-Oct-20 11:58N 31°25' E 121°32'950220374.4
2017-Oct-20 11:30N 40°43' W 074°03'9513407693.1
2017-Oct-20 11:29N 31°20' E 121°39'951319957.0
2017-Oct-20 11:00N 40°43' W 074°03'9513128745.2
2017-Oct-20 10:56N 31°20' E 121°39'951322324.8
2017-Oct-20 10:30N 40°43' W 074°03'9513402896.7
2017-Oct-20 10:29N 31°20' E 121°39'951319968.6
2017-Oct-20 10:00N 40°43' W 074°03'9513456616.3
2017-Oct-20 09:59N 31°20' E 121°39'951319852.9
2017-Oct-20 09:30N 40°43' W 074°03'951354793.9
2017-Oct-20 09:20N 31°20' E 121°39'951329220.3
2017-Oct-20 09:00N 40°43' W 074°03'951354532.2
2017-Oct-20 08:50N 31°20' E 121°39'951329145.7
2017-Oct-20 08:30N 40°43' W 074°03'9513402896.4
2017-Oct-20 08:29N 31°20' E 121°39'0 0.3
2017-Oct-20 07:59N 31°21' E 121°39'9513360484.4
2017-Oct-20 07:57N 40°43' W 074°03'951321297.4
2017-Oct-20 07:30N 31°20' E 121°39'95132853844.4
2017-Oct-20 07:30N 40°43' W 074°03'951319153.3
2017-Oct-20 07:00N 31°20' E 121°39'95132853847.8
2017-Oct-20 07:00N 40°43' W 074°03'951319142.6
2017-Oct-20 06:30N 31°20' E 121°39'95133113284.8
2017-Oct-20 06:30N 40°43' W 074°03'951319131.9
2017-Oct-20 06:00N 31°20' E 121°39'95133424617.3
2017-Oct-20 06:00N 40°43' W 074°03'951319142.6
2017-Oct-20 05:30N 31°20' E 121°39'95133424613.3
2017-Oct-20 05:30N 40°43' W 074°03'951319121.2
2017-Oct-20 05:00N 31°20' E 121°39'95138561526.1
2017-Oct-20 05:00N 40°43' W 074°03'951319068.0
2017-Oct-20 04:30N 31°20' E 121°39'95133805127.8
2017-Oct-20 04:30N 40°43' W 074°03'951319164.1
2017-Oct-20 04:01N 31°20' E 121°39'95133805130.4
2017-Oct-20 04:00N 40°43' W 074°03'951319089.3
2017-Oct-20 03:30N 31°20' E 121°39'95132853845.9
2017-Oct-20 03:30N 40°43' W 074°03'951319153.3
2017-Oct-20 03:00N 31°20' E 121°39'95133424615.6
2017-Oct-20 03:00N 40°43' W 074°03'951319131.9
2017-Oct-20 02:30N 31°20' E 121°39'95133113288.5
2017-Oct-20 02:30N 40°43' W 074°03'951319131.9
2017-Oct-20 02:00N 31°20' E 121°39'95133424617.3
2017-Oct-20 02:00N 40°43' W 074°03'951319131.9
2017-Oct-20 01:30N 31°20' E 121°39'95134280771.7
2017-Oct-20 01:30N 40°43' W 074°03'951319121.3
2017-Oct-20 01:00N 31°20' E 121°39'95133805130.4
2017-Oct-20 01:00N 40°43' W 074°03'951319121.2
2017-Oct-20 00:30N 31°20' E 121°39'95133113286.4
2017-Oct-20 00:30N 40°43' W 074°03'0 0.0
2017-Oct-20 00:00N 40°43' W 074°03'9513202640.1
2017-Oct-19 23:57N 31°20' E 121°39'0 0.0
2017-Oct-19 23:30N 31°20' E 121°39'95133424617.3
2017-Oct-19 23:30N 40°43' W 074°03'951319131.9
2017-Oct-19 23:00N 31°20' E 121°39'95133424617.3
2017-Oct-19 23:00N 40°43' W 074°03'0 0.0
2017-Oct-19 22:30N 40°43' W 074°03'9513195692.4
2017-Oct-19 22:27N 31°20' E 121°39'951321035.7
2017-Oct-19 22:00N 40°43' W 074°03'9513197954.8
2017-Oct-19 21:57N 31°20' E 121°39'1 3.2
2017-Oct-19 21:30N 31°22' E 121°39'95113423976.0
2017-Oct-19 21:30N 40°43' W 074°03'0 0.0
2017-Oct-19 21:00N 40°43' W 074°03'9510744298.5
2017-Oct-19 21:00N 31°23' E 121°39'951019530.9
2017-Oct-19 20:30N 40°43' W 074°03'9510728461.9
2017-Oct-19 20:30N 31°23' E 121°39'951019530.9
2017-Oct-19 20:00N 40°43' W 074°03'9510728462.4
2017-Oct-19 20:00N 31°23' E 121°39'951019530.9
2017-Oct-19 19:30N 40°43' W 074°03'9510796221.8
2017-Oct-19 19:30N 31°23' E 121°39'951019475.3
2017-Oct-19 19:00N 40°43' W 074°03'9510744294.3
2017-Oct-19 19:00N 31°23' E 121°39'951019519.7
2017-Oct-19 18:30N 40°43' W 074°03'9510744294.3
2017-Oct-19 18:30N 31°23' E 121°39'951019542.0
2017-Oct-19 18:00N 40°43' W 074°03'9510713282.0
2017-Oct-19 18:00N 31°23' E 121°39'951019519.7
2017-Oct-19 17:30N 40°43' W 074°03'9510744294.3
2017-Oct-19 17:30N 31°23' E 121°39'951019530.8
2017-Oct-19 17:00N 40°43' W 074°03'9510728456.7
2017-Oct-19 17:00N 31°23' E 121°39'951019530.8
2017-Oct-19 16:30N 40°43' W 074°03'9510728452.1
2017-Oct-19 16:30N 31°23' E 121°39'951019553.0
2017-Oct-19 16:00N 40°43' W 074°03'9510698719.3
2017-Oct-19 16:00N 31°23' E 121°39'951019519.5
2017-Oct-19 15:30N 40°43' W 074°03'9510744288.5
2017-Oct-19 15:30N 31°23' E 121°39'951019519.5
2017-Oct-19 15:00N 40°43' W 074°03'9510744288.1
2017-Oct-19 15:00N 31°23' E 121°39'951019541.8
2017-Oct-19 14:30N 40°43' W 074°03'9510728452.5
2017-Oct-19 14:30N 31°23' E 121°39'951019508.4
2017-Oct-19 14:00N 40°43' W 074°03'9510744292.3
2017-Oct-19 14:00N 31°23' E 121°39'951019597.8
2017-Oct-19 13:30N 40°43' W 074°03'9510645990.5
2017-Oct-19 13:30N 31°23' E 121°39'951019542.0
2017-Oct-19 13:00N 40°43' W 074°03'9510713286.6
2017-Oct-19 13:00N 31°23' E 121°39'951019531.0
2017-Oct-19 12:30N 40°43' W 074°03'9510796226.3
2017-Oct-19 12:30N 31°23' E 121°39'951019530.9
2017-Oct-19 12:00N 40°43' W 074°03'9510671328.0
2017-Oct-19 12:00N 31°23' E 121°39'951019542.1
2017-Oct-19 11:30N 40°43' W 074°03'9510951047.5
2017-Oct-19 11:30N 31°23' E 121°39'951019420.1
2017-Oct-19 11:00N 40°43' W 074°03'9510698728.8
2017-Oct-19 11:00N 31°23' E 121°39'951019553.2
2017-Oct-19 10:30N 40°43' W 074°03'9510713285.3
2017-Oct-19 10:30N 31°23' E 121°39'951019508.7
2017-Oct-19 10:00N 40°43' W 074°03'9510835065.7
2017-Oct-19 10:00N 31°23' E 121°39'0 0.0
2017-Oct-19 09:30N 31°23' E 121°39'9510778129.4
2017-Oct-19 09:29N 40°43' W 074°03'0 0.0
2017-Oct-19 08:59N 40°43' W 074°03'9510246314.3
2017-Oct-19 08:56N 31°23' E 121°39'0 0.0
2017-Oct-19 08:30N 31°23' E 121°39'9510778130.3
2017-Oct-19 08:29N 40°43' W 074°03'951019553.3
2017-Oct-19 08:00N 31°23' E 121°39'9510728462.9
2017-Oct-19 07:59N 40°43' W 074°03'951019475.4
2017-Oct-19 07:30N 31°23' E 121°39'9510778130.8
2017-Oct-19 07:29N 40°43' W 074°03'951019497.5
2017-Oct-19 07:00N 31°23' E 121°39'9510835063.5
2017-Oct-19 06:59N 40°43' W 074°03'951019409.2
2017-Oct-19 06:29N 31°23' E 121°39'9510877891.2
2017-Oct-19 06:29N 40°43' W 074°03'951019497.5
2017-Oct-19 06:00N 31°23' E 121°39'9510760834.8
2017-Oct-19 05:59N 40°43' W 074°03'951019553.1
2017-Oct-19 05:30N 31°23' E 121°39'9510698726.2
2017-Oct-19 05:29N 40°43' W 074°03'951019508.6
2017-Oct-19 05:00N 31°23' E 121°39'9510835062.4
2017-Oct-19 04:59N 40°43' W 074°03'951019486.3
2017-Oct-19 04:30N 31°23' E 121°39'9510728456.4
2017-Oct-19 04:29N 40°43' W 074°03'951019212.9
2017-Oct-19 03:59N 31°23' E 121°39'95102445528.8
2017-Oct-19 03:59N 40°43' W 074°03'951019116.4
2017-Oct-19 03:29N 31°23' E 121°39'95102853120.3
2017-Oct-19 03:29N 40°43' W 074°03'951019148.5
2017-Oct-19 02:59N 31°23' E 121°39'95103112494.9
2017-Oct-19 02:59N 40°43' W 074°03'951019137.8
2017-Oct-19 02:29N 31°23' E 121°39'95102853120.3
2017-Oct-19 02:29N 40°43' W 074°03'951019137.8
2017-Oct-19 01:59N 31°23' E 121°39'95103423746.7
2017-Oct-19 01:59N 40°43' W 074°03'951019127.1
2017-Oct-19 01:29N 31°23' E 121°39'95103423749.0
2017-Oct-19 01:29N 40°43' W 074°03'951019137.9
2017-Oct-19 00:59N 31°23' E 121°39'95103112519.6
2017-Oct-19 00:59N 40°43' W 074°03'951019137.9
2017-Oct-19 00:29N 31°23' E 121°39'95102853146.3
2017-Oct-19 00:29N 40°43' W 074°03'951019148.6
2017-Oct-18 23:59N 31°23' E 121°39'95103423773.3
2017-Oct-18 23:59N 40°43' W 074°03'951019127.2
2017-Oct-18 23:29N 31°23' E 121°39'95103423771.0
2017-Oct-18 23:29N 40°43' W 074°03'951019116.5
2017-Oct-18 22:59N 31°23' E 121°39'95103112519.1
2017-Oct-18 22:59N 40°43' W 074°03'951019137.9
2017-Oct-18 22:29N 31°23' E 121°39'95104279710.9
2017-Oct-18 22:29N 40°43' W 074°03'951019105.8
2017-Oct-18 21:59N 31°23' E 121°39'95103112499.6
2017-Oct-18 21:59N 40°43' W 074°03'951019137.8
2017-Oct-18 21:29N 31°23' E 121°39'95103804165.5
2017-Oct-18 21:29N 40°43' W 074°03'951019127.1
2017-Oct-18 20:59N 31°23' E 121°39'95103423749.0
2017-Oct-18 20:59N 40°43' W 074°03'951019127.1
2017-Oct-18 20:29N 31°23' E 121°39'95102853122.7
2017-Oct-18 20:29N 40°43' W 074°03'951019137.8
2017-Oct-18 19:59N 31°23' E 121°39'95104279686.2
2017-Oct-18 19:59N 40°43' W 074°03'951019105.7
2017-Oct-18 19:29N 31°23' E 121°39'95103423747.2
2017-Oct-18 19:29N 40°43' W 074°03'951019127.1
2017-Oct-18 18:59N 31°23' E 121°39'95103112499.1
2017-Oct-18 18:59N 40°43' W 074°03'951019169.9
2017-Oct-18 18:29N 31°23' E 121°39'95103112499.1
2017-Oct-18 18:29N 40°43' W 074°03'0 0.0
2017-Oct-18 17:59N 40°43' W 074°03'9510203794.6
2017-Oct-18 17:56N 31°23' E 121°39'0 0.0
2017-Oct-18 17:29N 31°23' E 121°39'95103423749.0
2017-Oct-18 17:29N 40°43' W 074°03'951019127.1
2017-Oct-18 16:59N 31°23' E 121°39'95103112499.1
2017-Oct-18 16:59N 40°43' W 074°03'951019127.0
2017-Oct-18 16:29N 31°23' E 121°39'95103112483.2
2017-Oct-18 16:29N 40°43' W 074°03'951019137.7
2017-Oct-18 15:59N 31°23' E 121°39'95103112479.0
2017-Oct-18 15:59N 40°43' W 074°03'951019148.3
2017-Oct-18 15:29N 31°23' E 121°39'95102853102.0
2017-Oct-18 15:29N 40°43' W 074°03'951019148.3
2017-Oct-18 14:59N 31°23' E 121°39'95102853102.0
2017-Oct-18 14:59N 40°43' W 074°03'0 0.0
2017-Oct-18 14:00N 40°43' W 074°03'9510444639.0
2017-Oct-18 13:59N 31°23' E 121°39'951019870.7
2017-Oct-18 13:30N 40°43' W 074°03'9510450489.5
2017-Oct-18 13:29N 31°23' E 121°39'951019847.7
2017-Oct-18 13:00N 40°43' W 074°03'9510456497.5
2017-Oct-18 12:59N 31°23' E 121°39'3 5.7
2017-Oct-18 12:30N 31°23' E 121°36'95083111659.8
2017-Oct-18 12:30N 40°43' W 074°03'0 0.0
2017-Oct-18 12:00N 40°43' W 074°03'95032443723.5
2017-Oct-18 12:00N 31°24' E 121°32'4 8.7
2017-Oct-18 11:30N 31°27' E 121°28'94973108241.9
2017-Oct-18 11:30N 40°43' W 074°03'949219110.9
2017-Oct-18 11:00N 31°29' E 121°25'94922440729.9
2017-Oct-18 11:00N 40°43' W 074°03'948619110.5
2017-Oct-18 10:30N 31°32' E 121°21'94862439316.3
2017-Oct-18 10:30N 40°43' W 074°03'0 0.0
2017-Oct-18 10:00N 40°43' W 074°03'947990758.5
2017-Oct-18 09:54N 31°35' E 121°17'947923964.3
2017-Oct-18 09:30N 40°43' W 074°03'0 0.0
2017-Oct-18 09:00N 40°43' W 074°03'0 0.0
2017-Oct-18 08:30N 40°43' W 074°03'0 0.0
2017-Oct-18 08:00N 40°43' W 074°03'0 0.0
2017-Oct-18 07:30N 40°43' W 074°03'0 0.0
2017-Oct-18 07:00N 40°43' W 074°03'0 0.0
2017-Oct-18 06:30N 40°43' W 074°03'0 0.0
2017-Oct-18 06:00N 40°43' W 074°03'0 0.0
2017-Oct-18 05:30N 40°43' W 074°03'0 0.0
2017-Oct-18 05:00N 40°43' W 074°03'0 0.0
2017-Oct-18 04:30N 40°43' W 074°03'0 0.0
2017-Oct-18 04:00N 40°43' W 074°03'0 0.0
2017-Oct-18 03:30N 40°43' W 074°03'0 0.0
2017-Oct-18 03:00N 40°43' W 074°03'0 0.0
2017-Oct-18 02:30N 40°43' W 074°03'0 0.0
2017-Oct-18 02:00N 40°43' W 074°03'0 0.0
2017-Oct-18 01:30N 40°43' W 074°03'0 0.0
2017-Oct-18 01:00N 40°43' W 074°03'0 0.0
2017-Oct-18 00:30N 40°43' W 074°03'0 0.0
2017-Oct-18 00:00N 40°43' W 074°03'0 0.0
2017-Oct-17 23:30N 40°43' W 074°03'0 0.0
2017-Oct-17 23:00N 40°43' W 074°03'0 0.0
2017-Oct-17 22:30N 40°43' W 074°03'0 0.0
2017-Oct-17 22:00N 40°43' W 074°03'0 0.0
2017-Oct-17 21:30N 40°43' W 074°03'0 0.0
2017-Oct-17 21:00N 40°43' W 074°03'0 0.0
2017-Oct-17 20:30N 40°43' W 074°03'0 0.0
2017-Oct-17 20:00N 40°43' W 074°03'0 0.0
2017-Oct-17 19:30N 40°43' W 074°03'0 0.0
2017-Oct-17 19:00N 40°43' W 074°03'0 0.0
2017-Oct-17 18:30N 40°43' W 074°03'0 0.0
2017-Oct-17 18:00N 40°43' W 074°03'0 0.0
2017-Oct-17 17:30N 40°43' W 074°03'0 0.0
2017-Oct-17 17:00N 40°43' W 074°03'0 0.0
2017-Oct-17 16:30N 40°43' W 074°03'0 0.0
2017-Oct-17 16:00N 40°43' W 074°03'0 0.0
2017-Oct-17 15:30N 40°43' W 074°03'0 0.0
2017-Oct-17 15:00N 40°43' W 074°03'0 0.0
2017-Oct-17 14:30N 40°43' W 074°03'0 0.0
2017-Oct-17 14:00N 40°43' W 074°03'0 0.0
2017-Oct-17 13:30N 40°43' W 074°03'0 0.0
2017-Oct-17 13:00N 40°43' W 074°03'0 0.0
2017-Oct-17 12:30N 40°43' W 074°03'0 0.0
2017-Oct-17 12:00N 40°43' W 074°03'0 0.0
2017-Oct-17 11:30N 40°43' W 074°03'0 0.0
2017-Oct-17 11:00N 40°43' W 074°03'0 0.0
2017-Oct-17 10:30N 40°43' W 074°03'0 0.0
2017-Oct-17 10:00N 40°43' W 074°03'0 0.0
2017-Oct-17 09:30N 40°43' W 074°03'0 0.0
2017-Oct-17 09:00N 40°43' W 074°03'0 0.0
2017-Oct-17 08:30N 40°43' W 074°03'0 0.0
2017-Oct-17 08:00N 40°43' W 074°03'0 0.0
2017-Oct-17 07:30N 40°43' W 074°03'0 0.0
2017-Oct-17 07:00N 40°43' W 074°03'0 0.0
2017-Oct-17 06:30N 40°43' W 074°03'0 0.0
2017-Oct-17 06:00N 40°43' W 074°03'0 0.0
2017-Oct-17 05:30N 40°43' W 074°03'0 0.0
2017-Oct-17 05:00N 40°43' W 074°03'0 0.0
2017-Oct-17 04:30N 40°43' W 074°03'0 0.0
2017-Oct-17 04:00N 40°43' W 074°03'0 0.0
2017-Oct-17 03:30N 40°43' W 074°03'0 0.0
2017-Oct-17 03:00N 40°43' W 074°03'0 0.0
2017-Oct-17 02:30N 40°43' W 074°03'0 0.0
2017-Oct-17 02:00N 40°43' W 074°03'0 0.0
2017-Oct-17 01:30N 40°43' W 074°03'0 0.0
2017-Oct-17 01:00N 40°43' W 074°03'0 0.0
2017-Oct-17 00:30N 40°43' W 074°03'0 0.0
2017-Oct-17 00:00N 40°43' W 074°03'0 0.0
2017-Oct-16 23:30N 40°43' W 074°03'0 0.0
2017-Oct-16 23:00N 40°43' W 074°03'0 0.0
2017-Oct-16 22:30N 40°43' W 074°03'0 0.0
2017-Oct-16 22:00N 40°43' W 074°03'0 0.0
2017-Oct-16 21:30N 40°43' W 074°03'0 0.0
2017-Oct-16 21:00N 40°43' W 074°03'0 0.0
2017-Oct-16 20:30N 40°43' W 074°03'0 0.0
2017-Oct-16 20:00N 40°43' W 074°03'0 0.0
2017-Oct-16 19:30N 40°43' W 074°03'0 0.0
2017-Oct-16 19:00N 40°43' W 074°03'0 0.0
2017-Oct-16 18:30N 40°43' W 074°03'0 0.0
2017-Oct-16 18:00N 40°43' W 074°03'0 0.0
2017-Oct-16 17:30N 40°43' W 074°03'0 0.0
2017-Oct-16 17:00N 40°43' W 074°03'0 0.0
2017-Oct-16 16:30N 40°43' W 074°03'0 0.0
2017-Oct-16 16:00N 40°43' W 074°03'0 0.0
2017-Oct-16 15:30N 40°43' W 074°03'0 0.0
2017-Oct-16 15:00N 40°43' W 074°03'0 0.0
2017-Oct-16 14:30N 40°43' W 074°03'0 0.0
2017-Oct-16 13:30N 40°43' W 074°03'0 0.0
2017-Oct-16 13:00N 40°43' W 074°03'0 0.0
2017-Oct-16 12:30N 40°43' W 074°03'0 0.0
2017-Oct-16 12:00N 40°43' W 074°03'0 0.0
2017-Oct-16 11:30N 40°43' W 074°03'0 0.0
2017-Oct-16 11:00N 40°43' W 074°03'0 0.0
2017-Oct-16 10:30N 40°43' W 074°03'0 0.0
2017-Oct-16 10:00N 40°43' W 074°03'0 0.0
2017-Oct-16 09:30N 40°43' W 074°03'0 0.0
2017-Oct-16 09:00N 40°43' W 074°03'0 0.0
2017-Oct-16 08:30N 40°43' W 074°03'0 0.0
2017-Oct-16 08:00N 40°43' W 074°03'0 0.0
2017-Oct-16 07:30N 40°43' W 074°03'0 0.0
2017-Oct-16 07:00N 40°43' W 074°03'0 0.0
2017-Oct-16 06:30N 40°43' W 074°03'0 0.0
2017-Oct-16 06:00N 40°43' W 074°03'0 0.0
2017-Oct-16 05:30N 40°43' W 074°03'0 0.0
2017-Oct-16 05:00N 40°43' W 074°03'0 0.0
2017-Oct-16 04:30N 40°43' W 074°03'0 0.0
2017-Oct-16 04:00N 40°43' W 074°03'0 0.0
2017-Oct-16 03:30N 40°43' W 074°03'950420365.9
2017-Oct-16 03:02N 31°22' E 121°30'9504287519.2
2017-Oct-16 03:00N 40°43' W 074°03'9504777608.9
2017-Oct-16 03:00N 31°22' E 121°30'950419517.8
2017-Oct-16 02:30N 40°43' W 074°03'95042012634.7
2017-Oct-16 02:30N 31°22' E 121°30'0 0.0
2017-Oct-16 02:01N 31°22' E 121°30'95042443913.5
2017-Oct-16 02:00N 40°43' W 074°03'0 0.0
2017-Oct-16 01:30N 40°43' W 074°03'95041710738.6
2017-Oct-16 01:30N 31°22' E 121°30'950419232.6
2017-Oct-16 01:00N 40°43' W 074°03'9504543091.9
2017-Oct-16 00:59N 31°22' E 121°30'950419686.3
2017-Oct-16 00:30N 40°43' W 074°03'9504249743.0
2017-Oct-16 00:28N 31°22' E 121°30'950420586.5
2017-Oct-16 00:00N 40°43' W 074°03'9504231182.2
2017-Oct-15 23:58N 31°22' E 121°30'950420698.7
2017-Oct-15 23:30N 40°43' W 074°03'95041103702.9
2017-Oct-15 23:30N 31°22' E 121°30'950419341.3
2017-Oct-15 23:00N 40°43' W 074°03'9504211202.4
2017-Oct-15 22:58N 31°22' E 121°30'950420900.9
2017-Oct-15 22:30N 40°43' W 074°03'950417107303.1
2017-Oct-15 22:30N 31°22' E 121°30'950419050.4
2017-Oct-15 22:00N 40°43' W 074°03'9504777603.6
2017-Oct-15 22:00N 31°22' E 121°30'950419451.1
2017-Oct-15 21:30N 40°43' W 074°03'95041710726.9
2017-Oct-15 21:30N 31°22' E 121°30'950419050.4
2017-Oct-15 21:00N 40°43' W 074°03'9504149408.5
2017-Oct-15 20:56N 31°22' E 121°30'0 0.0
2017-Oct-15 20:30N 31°22' E 121°30'95043421452.0
2017-Oct-15 20:30N 40°43' W 074°03'950419092.9
2017-Oct-15 20:00N 31°22' E 121°30'9504253441.0
2017-Oct-15 19:58N 40°43' W 074°03'0 0.0
2017-Oct-15 19:28N 40°43' W 074°03'0 0.0
2017-Oct-15 18:58N 40°43' W 074°03'0 0.0
2017-Oct-15 18:28N 40°43' W 074°03'0 0.0
2017-Oct-15 17:58N 40°43' W 074°03'0 0.0
2017-Oct-15 17:28N 40°43' W 074°03'0 0.0
2017-Oct-15 16:58N 40°43' W 074°03'0 0.0
2017-Oct-15 16:28N 40°43' W 074°03'0 0.0
2017-Oct-15 15:58N 40°43' W 074°03'0 0.0
2017-Oct-15 15:29N 40°43' W 074°03'0 0.0
2017-Oct-15 14:59N 40°43' W 074°03'0 0.0
2017-Oct-15 13:59N 40°43' W 074°03'0 0.0
2017-Oct-15 13:29N 40°43' W 074°03'0 0.0
2017-Oct-15 12:59N 40°43' W 074°03'0 0.0
2017-Oct-15 12:29N 40°43' W 074°03'0 0.0
2017-Oct-15 11:59N 40°43' W 074°03'0 0.0
2017-Oct-15 11:30N 40°43' W 074°03'0 0.0
2017-Oct-15 11:00N 40°43' W 074°03'0 0.0
2017-Oct-15 10:29N 40°43' W 074°03'0 0.0
2017-Oct-15 09:59N 40°43' W 074°03'0 0.0
2017-Oct-15 09:29N 40°43' W 074°03'950522995.7
2017-Oct-15 09:05N 31°21' E 121°31'9505109671.9
2017-Oct-15 08:59N 40°43' W 074°03'9505349159.6
2017-Oct-15 08:58N 31°21' E 121°31'950520104.4
2017-Oct-15 08:29N 40°43' W 074°03'9505194418.4
2017-Oct-15 08:26N 31°21' E 121°31'950521083.0
2017-Oct-15 07:59N 40°43' W 074°03'9505510711.1
2017-Oct-15 07:58N 31°21' E 121°31'0 0.0
2017-Oct-15 07:30N 31°21' E 121°31'9505795758.7
2017-Oct-15 07:29N 40°43' W 074°03'950519508.3
2017-Oct-15 07:00N 31°21' E 121°31'9505760392.1
2017-Oct-15 06:59N 40°43' W 074°03'0 0.0
2017-Oct-15 06:29N 40°43' W 074°03'95054888234.6
2017-Oct-15 06:29N 31°21' E 121°31'0 0.0
2017-Oct-15 06:00N 31°21' E 121°31'9505877375.4
2017-Oct-15 05:59N 40°43' W 074°03'0 0.0
2017-Oct-15 05:29N 40°43' W 074°03'0 0.0
2017-Oct-15 04:59N 40°43' W 074°03'0 0.0
2017-Oct-15 04:29N 40°43' W 074°03'0 0.0
2017-Oct-15 03:59N 40°43' W 074°03'0 0.0
2017-Oct-15 03:29N 40°43' W 074°03'0 0.0
2017-Oct-15 02:59N 40°43' W 074°03'950546554.1
2017-Oct-15 02:47N 31°21' E 121°30'950532038.7
2017-Oct-15 02:29N 40°43' W 074°03'0 0.0
2017-Oct-15 01:59N 40°43' W 074°03'0 0.0
2017-Oct-15 01:29N 40°43' W 074°03'0 0.0
2017-Oct-15 00:59N 40°43' W 074°03'0 0.0
2017-Oct-15 00:29N 40°43' W 074°03'0 0.0
2017-Oct-14 23:59N 40°43' W 074°03'0 0.0
2017-Oct-14 23:29N 40°43' W 074°03'0 0.0
2017-Oct-14 22:59N 40°43' W 074°03'0 0.0
2017-Oct-14 22:29N 40°43' W 074°03'0 0.0
2017-Oct-14 21:59N 40°43' W 074°03'0 0.0
2017-Oct-14 21:29N 40°43' W 074°03'0 0.0
2017-Oct-14 20:59N 40°43' W 074°03'0 0.0
2017-Oct-14 20:29N 40°43' W 074°03'0 0.0
2017-Oct-14 19:59N 40°43' W 074°03'0 0.0
2017-Oct-14 19:28N 40°43' W 074°03'0 0.0
2017-Oct-14 18:58N 40°43' W 074°03'0 0.0
2017-Oct-14 18:24N 40°43' W 074°03'0 0.0
2017-Oct-14 17:58N 40°43' W 074°03'0 0.0
2017-Oct-14 17:28N 40°43' W 074°03'0 0.0
2017-Oct-14 16:58N 40°43' W 074°03'0 0.0
2017-Oct-14 16:28N 40°43' W 074°03'0 0.0
2017-Oct-14 15:58N 40°43' W 074°03'0 0.0
2017-Oct-14 15:29N 40°43' W 074°03'0 0.0
2017-Oct-14 14:59N 40°43' W 074°03'0 0.0
2017-Oct-14 14:30N 40°43' W 074°03'0 0.0
2017-Oct-14 13:55N 40°43' W 074°03'0 0.0
2017-Oct-14 13:28N 40°43' W 074°03'0 0.0
2017-Oct-14 12:58N 40°43' W 074°03'0 0.0
2017-Oct-14 12:28N 40°43' W 074°03'0 0.0
2017-Oct-14 11:58N 40°43' W 074°03'0 0.0
2017-Oct-14 11:25N 40°43' W 074°03'0 0.0
2017-Oct-14 10:58N 40°43' W 074°03'0 0.0
2017-Oct-14 10:28N 40°43' W 074°03'0 0.0
2017-Oct-14 09:58N 40°43' W 074°03'0 0.0
2017-Oct-14 09:28N 40°43' W 074°03'0 0.0
2017-Oct-14 08:58N 40°43' W 074°03'0 0.0
2017-Oct-14 08:28N 40°43' W 074°03'0 0.0
2017-Oct-14 07:58N 40°43' W 074°03'0 0.0
2017-Oct-14 07:25N 40°43' W 074°03'0 0.0
2017-Oct-14 06:58N 40°43' W 074°03'0 0.0
2017-Oct-14 06:28N 40°43' W 074°03'0 0.0
2017-Oct-14 05:58N 40°43' W 074°03'0 0.0
2017-Oct-14 05:28N 40°43' W 074°03'0 0.0
2017-Oct-14 04:58N 40°43' W 074°03'0 0.0
2017-Oct-14 04:28N 40°43' W 074°03'0 0.0
2017-Oct-14 03:58N 40°43' W 074°03'0 0.0
2017-Oct-14 03:28N 40°43' W 074°03'0 0.0
2017-Oct-14 02:58N 40°43' W 074°03'0 0.0
2017-Oct-14 02:28N 40°43' W 074°03'0 0.0
2017-Oct-14 01:58N 40°43' W 074°03'0 0.0
2017-Oct-14 01:28N 40°43' W 074°03'0 0.0
2017-Oct-14 00:55N 40°43' W 074°03'0 0.0
2017-Oct-14 00:28N 40°43' W 074°03'0 0.0
2017-Oct-13 23:58N 40°43' W 074°03'0 0.0
2017-Oct-13 23:28N 40°43' W 074°03'0 0.0
2017-Oct-13 22:55N 40°43' W 074°03'0 0.0
2017-Oct-13 22:28N 40°43' W 074°03'0 0.0
2017-Oct-13 22:01N 40°43' W 074°03'0 0.0
2017-Oct-13 21:30N 40°43' W 074°03'0 0.0
2017-Oct-13 21:01N 40°43' W 074°03'0 0.0
2017-Oct-13 20:28N 40°43' W 074°03'0 0.0
2017-Oct-13 20:00N 40°43' W 074°03'0 0.0
2017-Oct-13 19:30N 40°43' W 074°03'0 0.0
2017-Oct-13 19:01N 40°43' W 074°03'0 0.0
2017-Oct-13 18:30N 40°43' W 074°03'0 0.0
2017-Oct-13 17:57N 40°43' W 074°03'0 0.0
2017-Oct-13 17:30N 40°43' W 074°03'0 0.0
2017-Oct-13 17:00N 40°43' W 074°03'0 0.0
2017-Oct-13 16:27N 40°43' W 074°03'0 0.0
2017-Oct-13 16:00N 40°43' W 074°03'0 0.0
2017-Oct-13 15:30N 40°43' W 074°03'0 0.0
2017-Oct-13 15:00N 40°43' W 074°03'0 0.0
2017-Oct-13 14:30N 40°43' W 074°03'0 0.0
2017-Oct-13 14:00N 40°43' W 074°03'0 0.0
2017-Oct-13 13:30N 40°43' W 074°03'0 0.0
2017-Oct-13 13:00N 40°43' W 074°03'0 0.0
2017-Oct-13 12:30N 40°43' W 074°03'0 0.0
2017-Oct-13 12:00N 40°43' W 074°03'0 0.0
2017-Oct-13 11:30N 40°43' W 074°03'0 0.0
2017-Oct-13 11:00N 40°43' W 074°03'0 0.0
2017-Oct-13 10:30N 40°43' W 074°03'0 0.0
2017-Oct-13 10:00N 40°43' W 074°03'0 0.0
2017-Oct-13 09:30N 40°43' W 074°03'0 0.0
2017-Oct-13 09:00N 40°43' W 074°03'0 0.0
2017-Oct-13 08:30N 40°43' W 074°03'0 0.0
2017-Oct-13 08:00N 40°43' W 074°03'0 0.0
2017-Oct-13 07:30N 40°43' W 074°03'0 0.0
2017-Oct-13 07:00N 40°43' W 074°03'0 0.0
2017-Oct-13 06:30N 40°43' W 074°03'0 0.0
2017-Oct-13 06:00N 40°43' W 074°03'0 0.0
2017-Oct-13 05:30N 40°43' W 074°03'0 0.0
2017-Oct-13 05:00N 40°43' W 074°03'0 0.0
2017-Oct-13 04:30N 40°43' W 074°03'0 0.0
2017-Oct-13 04:00N 40°43' W 074°03'0 0.0
2017-Oct-13 03:30N 40°43' W 074°03'0 0.0
2017-Oct-13 02:54N 40°43' W 074°03'0 0.0
2017-Oct-13 02:30N 40°43' W 074°03'949619247.8
2017-Oct-13 02:00N 31°14' E 121°09'94961367365.0
2017-Oct-13 02:00N 40°43' W 074°03'949719283.9
2017-Oct-13 01:30N 31°12' E 121°09'94971424595.0
2017-Oct-13 01:30N 40°43' W 074°03'949919233.0
2017-Oct-13 01:00N 31°11' E 121°09'94991367853.8
2017-Oct-13 01:00N 40°43' W 074°03'0 0.0
2017-Oct-13 00:30N 40°43' W 074°03'95011900158.4
2017-Oct-13 00:29N 31°09' E 121°09'950119204.3
2017-Oct-13 00:00N 40°43' W 074°03'0 0.0
2017-Oct-12 23:30N 40°43' W 074°03'0 0.0
2017-Oct-12 23:00N 40°43' W 074°03'0 0.0
2017-Oct-12 22:30N 40°43' W 074°03'0 0.0
2017-Oct-12 22:00N 40°43' W 074°03'0 0.0
2017-Oct-12 21:30N 40°43' W 074°03'0 0.0
2017-Oct-12 21:00N 40°43' W 074°03'0 0.0
2017-Oct-12 20:30N 40°43' W 074°03'0 0.0
2017-Oct-12 20:00N 40°43' W 074°03'0 0.0
2017-Oct-12 19:30N 40°43' W 074°03'0 0.0
2017-Oct-12 19:00N 40°43' W 074°03'0 0.0
2017-Oct-12 18:30N 40°43' W 074°03'0 0.0
2017-Oct-12 18:00N 40°43' W 074°03'0 0.0
2017-Oct-12 17:30N 40°43' W 074°03'0 0.0
2017-Oct-12 17:00N 40°43' W 074°03'0 0.0
2017-Oct-12 16:30N 40°43' W 074°03'0 0.0
2017-Oct-12 16:00N 40°43' W 074°03'0 0.0
2017-Oct-12 15:30N 40°43' W 074°03'0 0.0
2017-Oct-12 15:00N 40°43' W 074°03'0 0.0
2017-Oct-12 14:30N 40°43' W 074°03'0 0.0
2017-Oct-12 14:00N 40°43' W 074°03'0 0.0
2017-Oct-12 13:30N 40°43' W 074°03'0 0.0
2017-Oct-12 13:00N 40°43' W 074°03'0 0.0
2017-Oct-12 12:27N 40°43' W 074°03'0 0.0
2017-Oct-12 11:54N 40°43' W 074°03'0 0.0
2017-Oct-12 11:30N 40°43' W 074°03'0 0.0
2017-Oct-12 11:00N 40°43' W 074°03'0 0.0
2017-Oct-12 10:30N 40°43' W 074°03'0 0.0
2017-Oct-12 10:00N 40°43' W 074°03'0 0.0
2017-Oct-12 09:30N 40°43' W 074°03'0 0.0
2017-Oct-12 09:00N 40°43' W 074°03'0 0.0
2017-Oct-12 08:30N 40°43' W 074°03'0 0.0
2017-Oct-12 08:00N 40°43' W 074°03'0 0.0
2017-Oct-12 07:30N 40°43' W 074°03'  
Track history (hours):
 
Tides and Currents Weather Stations Pressure Air Temp Water Temp Dewpoint Dewpoint Depression Visibility Wind Speed Wind Dir Waves Ship Positions

Wake-n-waves

Last reported at 2017-Oct-22 07:59 UTC. Time now 2017-Oct-22 08:02 UTC.
Position N 40°43' W 074°03'.

Length 17 m.

Type: Pleasure craft. MMSI: 338025702.

Date/timePositionNaut miles runAvg speedWind from/ knotsBaromVisibWave heightAir tempDewpointWater temp
2017-Oct-22 07:59N 40°43' W 074°03'9506360244.6
2017-Oct-22 07:58N 31°24' E 121°36'950620060.5
2017-Oct-22 07:29N 40°43' W 074°03'9506124448.1
2017-Oct-22 07:25N 31°24' E 121°36'44614331.2
2017-Oct-22 07:23N 38°50' E 121°41'902722967.0
2017-Oct-22 06:59N 40°43' W 074°03'9506364077.0
2017-Oct-22 06:58N 31°24' E 121°36'44612260.6
2017-Oct-22 06:56N 38°50' E 121°40'2 3.6
2017-Oct-22 06:30N 38°49' E 121°39'9026955647.5
2017-Oct-22 06:29N 40°43' W 074°03'9506360244.4
2017-Oct-22 06:28N 31°24' E 121°36'445957.4
2017-Oct-22 06:00N 38°49' E 121°36'9025928243.4
2017-Oct-22 05:59N 40°43' W 074°03'9506364077.0
2017-Oct-22 05:58N 31°24' E 121°36'445979.2
2017-Oct-22 05:30N 38°49' E 121°36'9024470795.7
2017-Oct-22 05:29N 40°43' W 074°03'9506367991.6
2017-Oct-22 05:28N 31°24' E 121°36'950620037.0
2017-Oct-22 04:59N 40°43' W 074°03'9506371989.3
2017-Oct-22 04:58N 31°24' E 121°36'4451871.3
2017-Oct-22 04:43N 38°49' E 121°40'902738231.5
2017-Oct-22 04:29N 40°43' W 074°03'9506367989.5
2017-Oct-22 04:28N 31°24' E 121°36'4452492.0
2017-Oct-22 04:17N 38°49' E 121°39'902730540.9
2017-Oct-22 03:59N 40°43' W 074°03'9506360244.2
2017-Oct-22 03:58N 31°24' E 121°36'44580117.2
2017-Oct-22 03:57N 38°49' E 121°38'1 3.2
2017-Oct-22 03:30N 38°49' E 121°36'90241203193.0
2017-Oct-22 03:29N 40°43' W 074°03'9506364076.8
2017-Oct-22 03:28N 31°24' E 121°36'445905.1
2017-Oct-22 02:58N 38°49' E 121°34'44551676.0
2017-Oct-22 02:58N 31°24' E 121°36'950611407739.1
2017-Oct-22 02:58N 40°43' W 074°03'950619044.7
2017-Oct-22 02:28N 31°24' E 121°36'950634223351.3
2017-Oct-22 02:28N 40°43' W 074°03'9022104769.0
2017-Oct-22 02:22N 38°49' E 121°32'2 4.4
2017-Oct-22 02:00N 38°50' E 121°34'44610562.9
2017-Oct-22 01:58N 31°24' E 121°36'950617111672.9
2017-Oct-22 01:58N 40°43' W 074°03'950619044.7
2017-Oct-22 01:28N 31°24' E 121°36'950618981.3
2017-Oct-22 00:58N 40°43' W 074°03'9506192266.1
2017-Oct-22 00:55N 31°24' E 121°36'0 0.0
2017-Oct-22 00:28N 31°24' E 121°36'950617111684.4
2017-Oct-22 00:28N 40°43' W 074°03'0 0.0
2017-Oct-21 23:58N 40°43' W 074°03'950634223345.8
2017-Oct-21 23:58N 31°24' E 121°36'0 0.0
2017-Oct-21 23:28N 31°24' E 121°36'950634223368.7
2017-Oct-21 23:28N 40°43' W 074°03'0 0.0
2017-Oct-21 22:58N 40°43' W 074°03'950634223368.7
2017-Oct-21 22:58N 31°24' E 121°36'0 0.0
2017-Oct-21 22:28N 31°24' E 121°36'950663376.6
2017-Oct-21 22:19N 40°43' W 074°03'950627161.4
2017-Oct-21 21:58N 31°24' E 121°36'950634223368.7
2017-Oct-21 21:58N 40°43' W 074°03'0 0.0
2017-Oct-21 21:28N 40°43' W 074°03'950634223368.7
2017-Oct-21 21:28N 31°24' E 121°36'950619044.7
2017-Oct-21 20:58N 40°43' W 074°03'950611407789.6
2017-Oct-21 20:58N 31°24' E 121°36'950617293.3
2017-Oct-21 20:25N 40°43' W 074°03'950634223368.7
2017-Oct-21 20:25N 31°24' E 121°36'950622830.8
2017-Oct-21 20:00N 40°43' W 074°03'9506282837.9
2017-Oct-21 19:58N 31°24' E 121°36'950620358.9
2017-Oct-21 19:30N 40°43' W 074°03'9506287590.1
2017-Oct-21 19:28N 31°24' E 121°36'950620383.1
2017-Oct-21 19:00N 40°43' W 074°03'9506282837.8
2017-Oct-21 18:58N 31°24' E 121°36'0 0.0
2017-Oct-21 18:28N 31°24' E 121°36'9506600410.0
2017-Oct-21 18:27N 40°43' W 074°03'0 0.0
2017-Oct-21 18:00N 40°43' W 074°03'9506282836.5
2017-Oct-21 17:58N 31°24' E 121°36'950620407.4
2017-Oct-21 17:30N 40°43' W 074°03'9506278237.5
2017-Oct-21 17:28N 31°24' E 121°36'950620407.4
2017-Oct-21 17:00N 40°43' W 074°03'9506280518.0
2017-Oct-21 16:58N 31°24' E 121°36'0 0.0
2017-Oct-21 16:28N 31°24' E 121°36'9506590055.1
2017-Oct-21 16:27N 40°43' W 074°03'0 0.0
2017-Oct-21 16:00N 40°43' W 074°03'9506280518.0
2017-Oct-21 15:58N 31°24' E 121°36'950620419.6
2017-Oct-21 15:30N 40°43' W 074°03'9506278237.2
2017-Oct-21 15:28N 31°24' E 121°36'950620419.6
2017-Oct-21 15:00N 40°43' W 074°03'9506275993.3
2017-Oct-21 14:58N 31°24' E 121°36'0 0.1
2017-Oct-21 14:28N 31°24' E 121°36'950614295.5
2017-Oct-21 13:48N 40°43' W 074°03'0 0.0
2017-Oct-21 13:27N 40°43' W 074°03'9506280519.4
2017-Oct-21 13:25N 31°24' E 121°36'1 2.4
2017-Oct-21 13:00N 31°23' E 121°36'9508167784.6
2017-Oct-21 12:57N 40°43' W 074°03'0 0.0
2017-Oct-21 12:30N 40°43' W 074°03'9506590058.5
2017-Oct-21 12:29N 31°23' E 121°34'950719646.0
2017-Oct-21 12:00N 40°43' W 074°03'9507590060.4
2017-Oct-21 11:59N 31°23' E 121°34'950719634.8
2017-Oct-21 11:30N 40°43' W 074°03'9507590059.7
2017-Oct-21 11:29N 31°23' E 121°34'0 0.0
2017-Oct-21 10:59N 31°23' E 121°34'9507114078.3
2017-Oct-21 10:54N 40°43' W 074°03'0 0.0
2017-Oct-21 10:30N 40°43' W 074°03'9507570391.4
2017-Oct-21 10:29N 31°23' E 121°34'950719657.4
2017-Oct-21 10:00N 40°43' W 074°03'9507580059.0
2017-Oct-21 09:59N 31°23' E 121°34'950719680.0
2017-Oct-21 09:30N 40°43' W 074°03'950781484.5
2017-Oct-21 09:23N 31°23' E 121°34'950724835.6
2017-Oct-21 09:00N 40°43' W 074°03'950781290.9
2017-Oct-21 08:53N 31°23' E 121°34'950724763.7
2017-Oct-21 08:30N 40°43' W 074°03'9507580059.0
2017-Oct-21 08:29N 31°23' E 121°34'950719657.4
2017-Oct-21 08:00N 40°43' W 074°03'9507580059.3
2017-Oct-21 07:59N 31°23' E 121°34'950719668.7
2017-Oct-21 07:30N 40°43' W 074°03'9507110759.6
2017-Oct-21 07:24N 31°23' E 121°35'950722923.5
2017-Oct-21 07:00N 40°43' W 074°03'9507388920.4
2017-Oct-21 06:58N 31°24' E 121°36'950719991.2
2017-Oct-21 06:30N 40°43' W 074°03'950742410.1
2017-Oct-21 06:16N 31°24' E 121°36'950734501.0
2017-Oct-21 06:00N 40°43' W 074°03'9507384550.8
2017-Oct-21 05:58N 31°24' E 121°36'950719991.3
2017-Oct-21 05:30N 40°43' W 074°03'9507368008.8
2017-Oct-21 05:28N 31°24' E 121°36'950720049.7
2017-Oct-21 05:00N 40°43' W 074°03'9507384548.1
2017-Oct-21 04:58N 31°24' E 121°36'950720002.8
2017-Oct-21 04:30N 40°43' W 074°03'9507393388.0
2017-Oct-21 04:28N 31°24' E 121°36'950719979.4
2017-Oct-21 04:00N 40°43' W 074°03'9507376096.2
2017-Oct-21 03:58N 31°24' E 121°36'950720037.9
2017-Oct-21 03:30N 40°43' W 074°03'9507124907.8
2017-Oct-21 03:25N 31°24' E 121°36'950722413.1
2017-Oct-21 03:00N 40°43' W 074°03'9507384548.3
2017-Oct-21 02:58N 31°24' E 121°36'950720014.5
2017-Oct-21 02:30N 40°43' W 074°03'9507364096.0
2017-Oct-21 02:28N 31°24' E 121°36'950720049.8
2017-Oct-21 02:00N 40°43' W 074°03'9507388920.4
2017-Oct-21 01:58N 31°24' E 121°36'950720002.9
2017-Oct-21 01:30N 40°43' W 074°03'9507380277.6
2017-Oct-21 01:28N 31°24' E 121°36'950720002.9
2017-Oct-21 01:00N 40°43' W 074°03'9507368010.3
2017-Oct-21 00:58N 31°24' E 121°36'950720061.5
2017-Oct-21 00:30N 40°43' W 074°03'9507364097.1
2017-Oct-21 00:28N 31°24' E 121°36'950720061.6
2017-Oct-21 00:00N 40°43' W 074°03'9507380279.2
2017-Oct-20 23:58N 31°24' E 121°36'950720049.9
2017-Oct-20 23:30N 40°43' W 074°03'9507349236.0
2017-Oct-20 23:28N 31°24' E 121°36'950720097.0
2017-Oct-20 23:00N 40°43' W 074°03'9507372010.4
2017-Oct-20 22:58N 31°24' E 121°36'950720038.0
2017-Oct-20 22:30N 40°43' W 074°03'9507372010.6
2017-Oct-20 22:28N 31°24' E 121°36'950720014.6
2017-Oct-20 22:00N 40°43' W 074°03'9507380277.5
2017-Oct-20 21:58N 31°24' E 121°36'950720014.6
2017-Oct-20 21:30N 40°43' W 074°03'950775886.9
2017-Oct-20 21:22N 31°24' E 121°36'950725370.6
2017-Oct-20 21:00N 40°43' W 074°03'9507372010.6
2017-Oct-20 20:58N 31°24' E 121°36'950720038.0
2017-Oct-20 20:30N 40°43' W 074°03'9507376098.6
2017-Oct-20 20:28N 31°24' E 121°36'950719490.3
2017-Oct-20 19:59N 40°43' W 074°03'9507456332.7
2017-Oct-20 19:58N 31°24' E 121°36'950719840.6
2017-Oct-20 19:29N 40°43' W 074°03'9507450328.3
2017-Oct-20 19:28N 31°24' E 121°36'950719852.1
2017-Oct-20 18:59N 40°43' W 074°03'9507450328.3
2017-Oct-20 18:58N 31°24' E 121°36'950719852.1
2017-Oct-20 18:29N 40°43' W 074°03'950755560.0
2017-Oct-20 18:19N 31°24' E 121°36'950728955.1
2017-Oct-20 17:59N 40°43' W 074°03'9507444480.0
2017-Oct-20 17:58N 31°24' E 121°36'950719852.1
2017-Oct-20 17:29N 40°43' W 074°03'9507450326.3
2017-Oct-20 17:28N 31°24' E 121°36'0 1.1
2017-Oct-20 17:00N 31°23' E 121°36'9507475345.0
2017-Oct-20 16:59N 40°43' W 074°03'0 0.0
2017-Oct-20 16:29N 40°43' W 074°03'0 0.0
2017-Oct-20 15:59N 40°43' W 074°03'0 0.0
2017-Oct-20 15:29N 40°43' W 074°03'9512259424.8
2017-Oct-20 15:27N 31°21' E 121°39'0 1.0
2017-Oct-20 14:59N 31°20' E 121°39'951334246219.2
2017-Oct-20 14:59N 40°43' W 074°03'948822711.1
2017-Oct-20 14:34N 31°31' E 121°23'9488115396.8
2017-Oct-20 14:29N 40°43' W 074°03'949219787.0
2017-Oct-20 14:00N 31°30' E 121°26'15751.5
2017-Oct-20 13:59N 31°20' E 121°39'26171.0
2017-Oct-20 13:50N 31°14' E 121°09'2166.8
2017-Oct-20 13:30N 31°28' E 121°28'94955697126.4
2017-Oct-20 13:30N 40°43' W 074°03'94972442093.3
2017-Oct-20 13:30N 31°13' E 121°09'27377.8
2017-Oct-20 13:26N 31°20' E 121°39'2764.2
2017-Oct-20 13:01N 31°11' E 121°09'27997.8
2017-Oct-20 12:59N 31°20' E 121°39'95131369848.8
2017-Oct-20 12:58N 40°43' W 074°03'949868523.5
2017-Oct-20 12:50N 31°27' E 121°29'1 3.2
2017-Oct-20 12:30N 31°26' E 121°30'9621.1
2017-Oct-20 12:29N 31°20' E 121°39'95131426925.8
2017-Oct-20 12:28N 40°43' W 074°03'951319261.1
2017-Oct-20 11:59N 31°20' E 121°39'95131630771.3
2017-Oct-20 11:59N 40°43' W 074°03'95022280579.3
2017-Oct-20 11:58N 31°25' E 121°32'950220374.4
2017-Oct-20 11:30N 40°43' W 074°03'9513407693.1
2017-Oct-20 11:29N 31°20' E 121°39'951319957.0
2017-Oct-20 11:00N 40°43' W 074°03'9513128745.2
2017-Oct-20 10:56N 31°20' E 121°39'951322324.8
2017-Oct-20 10:30N 40°43' W 074°03'9513402896.7
2017-Oct-20 10:29N 31°20' E 121°39'951319968.6
2017-Oct-20 10:00N 40°43' W 074°03'9513456616.3
2017-Oct-20 09:59N 31°20' E 121°39'951319852.9
2017-Oct-20 09:30N 40°43' W 074°03'951354793.9
2017-Oct-20 09:20N 31°20' E 121°39'951329220.3
2017-Oct-20 09:00N 40°43' W 074°03'951354532.2
2017-Oct-20 08:50N 31°20' E 121°39'951329145.7
2017-Oct-20 08:30N 40°43' W 074°03'9513402896.4
2017-Oct-20 08:29N 31°20' E 121°39'0 0.3
2017-Oct-20 07:59N 31°21' E 121°39'9513360484.4
2017-Oct-20 07:57N 40°43' W 074°03'951321297.4
2017-Oct-20 07:30N 31°20' E 121°39'95132853844.4
2017-Oct-20 07:30N 40°43' W 074°03'951319153.3
2017-Oct-20 07:00N 31°20' E 121°39'95132853847.8
2017-Oct-20 07:00N 40°43' W 074°03'951319142.6
2017-Oct-20 06:30N 31°20' E 121°39'95133113284.8
2017-Oct-20 06:30N 40°43' W 074°03'951319131.9
2017-Oct-20 06:00N 31°20' E 121°39'95133424617.3
2017-Oct-20 06:00N 40°43' W 074°03'951319142.6
2017-Oct-20 05:30N 31°20' E 121°39'95133424613.3
2017-Oct-20 05:30N 40°43' W 074°03'951319121.2
2017-Oct-20 05:00N 31°20' E 121°39'95138561526.1
2017-Oct-20 05:00N 40°43' W 074°03'951319068.0
2017-Oct-20 04:30N 31°20' E 121°39'95133805127.8
2017-Oct-20 04:30N 40°43' W 074°03'951319164.1
2017-Oct-20 04:01N 31°20' E 121°39'95133805130.4
2017-Oct-20 04:00N 40°43' W 074°03'951319089.3
2017-Oct-20 03:30N 31°20' E 121°39'95132853845.9
2017-Oct-20 03:30N 40°43' W 074°03'951319153.3
2017-Oct-20 03:00N 31°20' E 121°39'95133424615.6
2017-Oct-20 03:00N 40°43' W 074°03'951319131.9
2017-Oct-20 02:30N 31°20' E 121°39'95133113288.5
2017-Oct-20 02:30N 40°43' W 074°03'951319131.9
2017-Oct-20 02:00N 31°20' E 121°39'95133424617.3
2017-Oct-20 02:00N 40°43' W 074°03'951319131.9
2017-Oct-20 01:30N 31°20' E 121°39'95134280771.7
2017-Oct-20 01:30N 40°43' W 074°03'951319121.3
2017-Oct-20 01:00N 31°20' E 121°39'95133805130.4
2017-Oct-20 01:00N 40°43' W 074°03'951319121.2
2017-Oct-20 00:30N 31°20' E 121°39'95133113286.4
2017-Oct-20 00:30N 40°43' W 074°03'0 0.0
2017-Oct-20 00:00N 40°43' W 074°03'9513202640.1
2017-Oct-19 23:57N 31°20' E 121°39'0 0.0
2017-Oct-19 23:30N 31°20' E 121°39'95133424617.3
2017-Oct-19 23:30N 40°43' W 074°03'951319131.9
2017-Oct-19 23:00N 31°20' E 121°39'95133424617.3
2017-Oct-19 23:00N 40°43' W 074°03'0 0.0
2017-Oct-19 22:30N 40°43' W 074°03'9513195692.4
2017-Oct-19 22:27N 31°20' E 121°39'951321035.7
2017-Oct-19 22:00N 40°43' W 074°03'9513197954.8
2017-Oct-19 21:57N 31°20' E 121°39'1 3.2
2017-Oct-19 21:30N 31°22' E 121°39'95113423976.0
2017-Oct-19 21:30N 40°43' W 074°03'0 0.0
2017-Oct-19 21:00N 40°43' W 074°03'9510744298.5
2017-Oct-19 21:00N 31°23' E 121°39'951019530.9
2017-Oct-19 20:30N 40°43' W 074°03'9510728461.9
2017-Oct-19 20:30N 31°23' E 121°39'951019530.9
2017-Oct-19 20:00N 40°43' W 074°03'9510728462.4
2017-Oct-19 20:00N 31°23' E 121°39'951019530.9
2017-Oct-19 19:30N 40°43' W 074°03'9510796221.8
2017-Oct-19 19:30N 31°23' E 121°39'951019475.3
2017-Oct-19 19:00N 40°43' W 074°03'9510744294.3
2017-Oct-19 19:00N 31°23' E 121°39'951019519.7
2017-Oct-19 18:30N 40°43' W 074°03'9510744294.3
2017-Oct-19 18:30N 31°23' E 121°39'951019542.0
2017-Oct-19 18:00N 40°43' W 074°03'9510713282.0
2017-Oct-19 18:00N 31°23' E 121°39'951019519.7
2017-Oct-19 17:30N 40°43' W 074°03'9510744294.3
2017-Oct-19 17:30N 31°23' E 121°39'951019530.8
2017-Oct-19 17:00N 40°43' W 074°03'9510728456.7
2017-Oct-19 17:00N 31°23' E 121°39'951019530.8
2017-Oct-19 16:30N 40°43' W 074°03'9510728452.1
2017-Oct-19 16:30N 31°23' E 121°39'951019553.0
2017-Oct-19 16:00N 40°43' W 074°03'9510698719.3
2017-Oct-19 16:00N 31°23' E 121°39'951019519.5
2017-Oct-19 15:30N 40°43' W 074°03'9510744288.5
2017-Oct-19 15:30N 31°23' E 121°39'951019519.5
2017-Oct-19 15:00N 40°43' W 074°03'9510744288.1
2017-Oct-19 15:00N 31°23' E 121°39'951019541.8
2017-Oct-19 14:30N 40°43' W 074°03'9510728452.5
2017-Oct-19 14:30N 31°23' E 121°39'951019508.4
2017-Oct-19 14:00N 40°43' W 074°03'9510744292.3
2017-Oct-19 14:00N 31°23' E 121°39'951019597.8
2017-Oct-19 13:30N 40°43' W 074°03'9510645990.5
2017-Oct-19 13:30N 31°23' E 121°39'951019542.0
2017-Oct-19 13:00N 40°43' W 074°03'9510713286.6
2017-Oct-19 13:00N 31°23' E 121°39'951019531.0
2017-Oct-19 12:30N 40°43' W 074°03'9510796226.3
2017-Oct-19 12:30N 31°23' E 121°39'951019530.9
2017-Oct-19 12:00N 40°43' W 074°03'9510671328.0
2017-Oct-19 12:00N 31°23' E 121°39'951019542.1
2017-Oct-19 11:30N 40°43' W 074°03'9510951047.5
2017-Oct-19 11:30N 31°23' E 121°39'951019420.1
2017-Oct-19 11:00N 40°43' W 074°03'9510698728.8
2017-Oct-19 11:00N 31°23' E 121°39'951019553.2
2017-Oct-19 10:30N 40°43' W 074°03'9510713285.3
2017-Oct-19 10:30N 31°23' E 121°39'951019508.7
2017-Oct-19 10:00N 40°43' W 074°03'9510835065.7
2017-Oct-19 10:00N 31°23' E 121°39'0 0.0
2017-Oct-19 09:30N 31°23' E 121°39'9510778129.4
2017-Oct-19 09:29N 40°43' W 074°03'0 0.0
2017-Oct-19 08:59N 40°43' W 074°03'9510246314.3
2017-Oct-19 08:56N 31°23' E 121°39'0 0.0
2017-Oct-19 08:30N 31°23' E 121°39'9510778130.3
2017-Oct-19 08:29N 40°43' W 074°03'951019553.3
2017-Oct-19 08:00N 31°23' E 121°39'9510728462.9
2017-Oct-19 07:59N 40°43' W 074°03'951019475.4
2017-Oct-19 07:30N 31°23' E 121°39'9510778130.8
2017-Oct-19 07:29N 40°43' W 074°03'951019497.5
2017-Oct-19 07:00N 31°23' E 121°39'9510835063.5
2017-Oct-19 06:59N 40°43' W 074°03'951019409.2
2017-Oct-19 06:29N 31°23' E 121°39'9510877891.2
2017-Oct-19 06:29N 40°43' W 074°03'951019497.5
2017-Oct-19 06:00N 31°23' E 121°39'9510760834.8
2017-Oct-19 05:59N 40°43' W 074°03'951019553.1
2017-Oct-19 05:30N 31°23' E 121°39'9510698726.2
2017-Oct-19 05:29N 40°43' W 074°03'951019508.6
2017-Oct-19 05:00N 31°23' E 121°39'9510835062.4
2017-Oct-19 04:59N 40°43' W 074°03'951019486.3
2017-Oct-19 04:30N 31°23' E 121°39'9510728456.4
2017-Oct-19 04:29N 40°43' W 074°03'951019212.9
2017-Oct-19 03:59N 31°23' E 121°39'95102445528.8
2017-Oct-19 03:59N 40°43' W 074°03'951019116.4
2017-Oct-19 03:29N 31°23' E 121°39'95102853120.3
2017-Oct-19 03:29N 40°43' W 074°03'951019148.5
2017-Oct-19 02:59N 31°23' E 121°39'95103112494.9
2017-Oct-19 02:59N 40°43' W 074°03'951019137.8
2017-Oct-19 02:29N 31°23' E 121°39'95102853120.3
2017-Oct-19 02:29N 40°43' W 074°03'951019137.8
2017-Oct-19 01:59N 31°23' E 121°39'95103423746.7
2017-Oct-19 01:59N 40°43' W 074°03'951019127.1
2017-Oct-19 01:29N 31°23' E 121°39'95103423749.0
2017-Oct-19 01:29N 40°43' W 074°03'951019137.9
2017-Oct-19 00:59N 31°23' E 121°39'95103112519.6
2017-Oct-19 00:59N 40°43' W 074°03'951019137.9
2017-Oct-19 00:29N 31°23' E 121°39'95102853146.3
2017-Oct-19 00:29N 40°43' W 074°03'951019148.6
2017-Oct-18 23:59N 31°23' E 121°39'95103423773.3
2017-Oct-18 23:59N 40°43' W 074°03'951019127.2
2017-Oct-18 23:29N 31°23' E 121°39'95103423771.0
2017-Oct-18 23:29N 40°43' W 074°03'951019116.5
2017-Oct-18 22:59N 31°23' E 121°39'95103112519.1
2017-Oct-18 22:59N 40°43' W 074°03'951019137.9
2017-Oct-18 22:29N 31°23' E 121°39'95104279710.9
2017-Oct-18 22:29N 40°43' W 074°03'951019105.8
2017-Oct-18 21:59N 31°23' E 121°39'95103112499.6
2017-Oct-18 21:59N 40°43' W 074°03'951019137.8
2017-Oct-18 21:29N 31°23' E 121°39'95103804165.5
2017-Oct-18 21:29N 40°43' W 074°03'951019127.1
2017-Oct-18 20:59N 31°23' E 121°39'95103423749.0
2017-Oct-18 20:59N 40°43' W 074°03'951019127.1
2017-Oct-18 20:29N 31°23' E 121°39'95102853122.7
2017-Oct-18 20:29N 40°43' W 074°03'951019137.8
2017-Oct-18 19:59N 31°23' E 121°39'95104279686.2
2017-Oct-18 19:59N 40°43' W 074°03'951019105.7
2017-Oct-18 19:29N 31°23' E 121°39'95103423747.2
2017-Oct-18 19:29N 40°43' W 074°03'951019127.1
2017-Oct-18 18:59N 31°23' E 121°39'95103112499.1
2017-Oct-18 18:59N 40°43' W 074°03'951019169.9
2017-Oct-18 18:29N 31°23' E 121°39'95103112499.1
2017-Oct-18 18:29N 40°43' W 074°03'0 0.0
2017-Oct-18 17:59N 40°43' W 074°03'9510203794.6
2017-Oct-18 17:56N 31°23' E 121°39'0 0.0
2017-Oct-18 17:29N 31°23' E 121°39'95103423749.0
2017-Oct-18 17:29N 40°43' W 074°03'951019127.1
2017-Oct-18 16:59N 31°23' E 121°39'95103112499.1
2017-Oct-18 16:59N 40°43' W 074°03'951019127.0
2017-Oct-18 16:29N 31°23' E 121°39'95103112483.2
2017-Oct-18 16:29N 40°43' W 074°03'951019137.7
2017-Oct-18 15:59N 31°23' E 121°39'95103112479.0
2017-Oct-18 15:59N 40°43' W 074°03'951019148.3
2017-Oct-18 15:29N 31°23' E 121°39'95102853102.0
2017-Oct-18 15:29N 40°43' W 074°03'951019148.3
2017-Oct-18 14:59N 31°23' E 121°39'95102853102.0
2017-Oct-18 14:59N 40°43' W 074°03'0 0.0
2017-Oct-18 14:00N 40°43' W 074°03'9510444639.0
2017-Oct-18 13:59N 31°23' E 121°39'951019870.7
2017-Oct-18 13:30N 40°43' W 074°03'9510450489.5
2017-Oct-18 13:29N 31°23' E 121°39'951019847.7
2017-Oct-18 13:00N 40°43' W 074°03'9510456497.5
2017-Oct-18 12:59N 31°23' E 121°39'3 5.7
2017-Oct-18 12:30N 31°23' E 121°36'95083111659.8
2017-Oct-18 12:30N 40°43' W 074°03'0 0.0
2017-Oct-18 12:00N 40°43' W 074°03'95032443723.5
2017-Oct-18 12:00N 31°24' E 121°32'4 8.7
2017-Oct-18 11:30N 31°27' E 121°28'94973108241.9
2017-Oct-18 11:30N 40°43' W 074°03'949219110.9
2017-Oct-18 11:00N 31°29' E 121°25'94922440729.9
2017-Oct-18 11:00N 40°43' W 074°03'948619110.5
2017-Oct-18 10:30N 31°32' E 121°21'94862439316.3
2017-Oct-18 10:30N 40°43' W 074°03'0 0.0
2017-Oct-18 10:00N 40°43' W 074°03'947990758.5
2017-Oct-18 09:54N 31°35' E 121°17'947923964.3
2017-Oct-18 09:30N 40°43' W 074°03'0 0.0
2017-Oct-18 09:00N 40°43' W 074°03'0 0.0
2017-Oct-18 08:30N 40°43' W 074°03'0 0.0
2017-Oct-18 08:00N 40°43' W 074°03'0 0.0
2017-Oct-18 07:30N 40°43' W 074°03'0 0.0
2017-Oct-18 07:00N 40°43' W 074°03'0 0.0
2017-Oct-18 06:30N 40°43' W 074°03'0 0.0
2017-Oct-18 06:00N 40°43' W 074°03'0 0.0
2017-Oct-18 05:30N 40°43' W 074°03'0 0.0
2017-Oct-18 05:00N 40°43' W 074°03'0 0.0
2017-Oct-18 04:30N 40°43' W 074°03'0 0.0
2017-Oct-18 04:00N 40°43' W 074°03'0 0.0
2017-Oct-18 03:30N 40°43' W 074°03'0 0.0
2017-Oct-18 03:00N 40°43' W 074°03'0 0.0
2017-Oct-18 02:30N 40°43' W 074°03'0 0.0
2017-Oct-18 02:00N 40°43' W 074°03'0 0.0
2017-Oct-18 01:30N 40°43' W 074°03'0 0.0
2017-Oct-18 01:00N 40°43' W 074°03'0 0.0
2017-Oct-18 00:30N 40°43' W 074°03'0 0.0
2017-Oct-18 00:00N 40°43' W 074°03'0 0.0
2017-Oct-17 23:30N 40°43' W 074°03'0 0.0
2017-Oct-17 23:00N 40°43' W 074°03'0 0.0
2017-Oct-17 22:30N 40°43' W 074°03'0 0.0
2017-Oct-17 22:00N 40°43' W 074°03'0 0.0
2017-Oct-17 21:30N 40°43' W 074°03'0 0.0
2017-Oct-17 21:00N 40°43' W 074°03'0 0.0
2017-Oct-17 20:30N 40°43' W 074°03'0 0.0
2017-Oct-17 20:00N 40°43' W 074°03'0 0.0
2017-Oct-17 19:30N 40°43' W 074°03'0 0.0
2017-Oct-17 19:00N 40°43' W 074°03'0 0.0
2017-Oct-17 18:30N 40°43' W 074°03'0 0.0
2017-Oct-17 18:00N 40°43' W 074°03'0 0.0
2017-Oct-17 17:30N 40°43' W 074°03'0 0.0
2017-Oct-17 17:00N 40°43' W 074°03'0 0.0
2017-Oct-17 16:30N 40°43' W 074°03'0 0.0
2017-Oct-17 16:00N 40°43' W 074°03'0 0.0
2017-Oct-17 15:30N 40°43' W 074°03'0 0.0
2017-Oct-17 15:00N 40°43' W 074°03'0 0.0
2017-Oct-17 14:30N 40°43' W 074°03'0 0.0
2017-Oct-17 14:00N 40°43' W 074°03'0 0.0
2017-Oct-17 13:30N 40°43' W 074°03'0 0.0
2017-Oct-17 13:00N 40°43' W 074°03'0 0.0
2017-Oct-17 12:30N 40°43' W 074°03'0 0.0
2017-Oct-17 12:00N 40°43' W 074°03'0 0.0
2017-Oct-17 11:30N 40°43' W 074°03'0 0.0
2017-Oct-17 11:00N 40°43' W 074°03'0 0.0
2017-Oct-17 10:30N 40°43' W 074°03'0 0.0
2017-Oct-17 10:00N 40°43' W 074°03'0 0.0
2017-Oct-17 09:30N 40°43' W 074°03'0 0.0
2017-Oct-17 09:00N 40°43' W 074°03'0 0.0
2017-Oct-17 08:30N 40°43' W 074°03'0 0.0
2017-Oct-17 08:00N 40°43' W 074°03'0 0.0
2017-Oct-17 07:30N 40°43' W 074°03'0 0.0
2017-Oct-17 07:00N 40°43' W 074°03'0 0.0
2017-Oct-17 06:30N 40°43' W 074°03'0 0.0
2017-Oct-17 06:00N 40°43' W 074°03'0 0.0
2017-Oct-17 05:30N 40°43' W 074°03'0 0.0
2017-Oct-17 05:00N 40°43' W 074°03'0 0.0
2017-Oct-17 04:30N 40°43' W 074°03'0 0.0
2017-Oct-17 04:00N 40°43' W 074°03'0 0.0
2017-Oct-17 03:30N 40°43' W 074°03'0 0.0
2017-Oct-17 03:00N 40°43' W 074°03'0 0.0
2017-Oct-17 02:30N 40°43' W 074°03'0 0.0
2017-Oct-17 02:00N 40°43' W 074°03'0 0.0
2017-Oct-17 01:30N 40°43' W 074°03'0 0.0
2017-Oct-17 01:00N 40°43' W 074°03'0 0.0
2017-Oct-17 00:30N 40°43' W 074°03'0 0.0
2017-Oct-17 00:00N 40°43' W 074°03'0 0.0
2017-Oct-16 23:30N 40°43' W 074°03'0 0.0
2017-Oct-16 23:00N 40°43' W 074°03'0 0.0
2017-Oct-16 22:30N 40°43' W 074°03'0 0.0
2017-Oct-16 22:00N 40°43' W 074°03'0 0.0
2017-Oct-16 21:30N 40°43' W 074°03'0 0.0
2017-Oct-16 21:00N 40°43' W 074°03'0 0.0
2017-Oct-16 20:30N 40°43' W 074°03'0 0.0
2017-Oct-16 20:00N 40°43' W 074°03'0 0.0
2017-Oct-16 19:30N 40°43' W 074°03'0 0.0
2017-Oct-16 19:00N 40°43' W 074°03'0 0.0
2017-Oct-16 18:30N 40°43' W 074°03'0 0.0
2017-Oct-16 18:00N 40°43' W 074°03'0 0.0
2017-Oct-16 17:30N 40°43' W 074°03'0 0.0
2017-Oct-16 17:00N 40°43' W 074°03'0 0.0
2017-Oct-16 16:30N 40°43' W 074°03'0 0.0
2017-Oct-16 16:00N 40°43' W 074°03'0 0.0
2017-Oct-16 15:30N 40°43' W 074°03'0 0.0
2017-Oct-16 15:00N 40°43' W 074°03'0 0.0
2017-Oct-16 14:30N 40°43' W 074°03'0 0.0
2017-Oct-16 13:30N 40°43' W 074°03'0 0.0
2017-Oct-16 13:00N 40°43' W 074°03'0 0.0
2017-Oct-16 12:30N 40°43' W 074°03'0 0.0
2017-Oct-16 12:00N 40°43' W 074°03'0 0.0
2017-Oct-16 11:30N 40°43' W 074°03'0 0.0
2017-Oct-16 11:00N 40°43' W 074°03'0 0.0
2017-Oct-16 10:30N 40°43' W 074°03'0 0.0
2017-Oct-16 10:00N 40°43' W 074°03'0 0.0
2017-Oct-16 09:30N 40°43' W 074°03'0 0.0
2017-Oct-16 09:00N 40°43' W 074°03'0 0.0
2017-Oct-16 08:30N 40°43' W 074°03'0 0.0
2017-Oct-16 08:00N 40°43' W 074°03'0 0.0
2017-Oct-16 07:30N 40°43' W 074°03'0 0.0
2017-Oct-16 07:00N 40°43' W 074°03'0 0.0
2017-Oct-16 06:30N 40°43' W 074°03'0 0.0
2017-Oct-16 06:00N 40°43' W 074°03'0 0.0
2017-Oct-16 05:30N 40°43' W 074°03'0 0.0
2017-Oct-16 05:00N 40°43' W 074°03'0 0.0
2017-Oct-16 04:30N 40°43' W 074°03'0 0.0
2017-Oct-16 04:00N 40°43' W 074°03'0 0.0
2017-Oct-16 03:30N 40°43' W 074°03'950420365.9
2017-Oct-16 03:02N 31°22' E 121°30'9504287519.2
2017-Oct-16 03:00N 40°43' W 074°03'9504777608.9
2017-Oct-16 03:00N 31°22' E 121°30'950419517.8
2017-Oct-16 02:30N 40°43' W 074°03'95042012634.7
2017-Oct-16 02:30N 31°22' E 121°30'0 0.0
2017-Oct-16 02:01N 31°22' E 121°30'95042443913.5
2017-Oct-16 02:00N 40°43' W 074°03'0 0.0
2017-Oct-16 01:30N 40°43' W 074°03'95041710738.6
2017-Oct-16 01:30N 31°22' E 121°30'950419232.6
2017-Oct-16 01:00N 40°43' W 074°03'9504543091.9
2017-Oct-16 00:59N 31°22' E 121°30'950419686.3
2017-Oct-16 00:30N 40°43' W 074°03'9504249743.0
2017-Oct-16 00:28N 31°22' E 121°30'950420586.5
2017-Oct-16 00:00N 40°43' W 074°03'9504231182.2
2017-Oct-15 23:58N 31°22' E 121°30'950420698.7
2017-Oct-15 23:30N 40°43' W 074°03'95041103702.9
2017-Oct-15 23:30N 31°22' E 121°30'950419341.3
2017-Oct-15 23:00N 40°43' W 074°03'9504211202.4
2017-Oct-15 22:58N 31°22' E 121°30'950420900.9
2017-Oct-15 22:30N 40°43' W 074°03'950417107303.1
2017-Oct-15 22:30N 31°22' E 121°30'950419050.4
2017-Oct-15 22:00N 40°43' W 074°03'9504777603.6
2017-Oct-15 22:00N 31°22' E 121°30'950419451.1
2017-Oct-15 21:30N 40°43' W 074°03'95041710726.9
2017-Oct-15 21:30N 31°22' E 121°30'950419050.4
2017-Oct-15 21:00N 40°43' W 074°03'9504149408.5
2017-Oct-15 20:56N 31°22' E 121°30'0 0.0
2017-Oct-15 20:30N 31°22' E 121°30'95043421452.0
2017-Oct-15 20:30N 40°43' W 074°03'950419092.9
2017-Oct-15 20:00N 31°22' E 121°30'9504253441.0
2017-Oct-15 19:58N 40°43' W 074°03'0 0.0
2017-Oct-15 19:28N 40°43' W 074°03'0 0.0
2017-Oct-15 18:58N 40°43' W 074°03'0 0.0
2017-Oct-15 18:28N 40°43' W 074°03'0 0.0
2017-Oct-15 17:58N 40°43' W 074°03'0 0.0
2017-Oct-15 17:28N 40°43' W 074°03'0 0.0
2017-Oct-15 16:58N 40°43' W 074°03'0 0.0
2017-Oct-15 16:28N 40°43' W 074°03'0 0.0
2017-Oct-15 15:58N 40°43' W 074°03'0 0.0
2017-Oct-15 15:29N 40°43' W 074°03'0 0.0
2017-Oct-15 14:59N 40°43' W 074°03'0 0.0
2017-Oct-15 13:59N 40°43' W 074°03'0 0.0
2017-Oct-15 13:29N 40°43' W 074°03'0 0.0
2017-Oct-15 12:59N 40°43' W 074°03'0 0.0
2017-Oct-15 12:29N 40°43' W 074°03'0 0.0
2017-Oct-15 11:59N 40°43' W 074°03'0 0.0
2017-Oct-15 11:30N 40°43' W 074°03'0 0.0
2017-Oct-15 11:00N 40°43' W 074°03'0 0.0
2017-Oct-15 10:29N 40°43' W 074°03'0 0.0
2017-Oct-15 09:59N 40°43' W 074°03'0 0.0
2017-Oct-15 09:29N 40°43' W 074°03'950522995.7
2017-Oct-15 09:05N 31°21' E 121°31'9505109671.9
2017-Oct-15 08:59N 40°43' W 074°03'9505349159.6
2017-Oct-15 08:58N 31°21' E 121°31'950520104.4
2017-Oct-15 08:29N 40°43' W 074°03'9505194418.4
2017-Oct-15 08:26N 31°21' E 121°31'950521083.0
2017-Oct-15 07:59N 40°43' W 074°03'9505510711.1
2017-Oct-15 07:58N 31°21' E 121°31'0 0.0
2017-Oct-15 07:30N 31°21' E 121°31'9505795758.7
2017-Oct-15 07:29N 40°43' W 074°03'950519508.3
2017-Oct-15 07:00N 31°21' E 121°31'9505760392.1
2017-Oct-15 06:59N 40°43' W 074°03'0 0.0
2017-Oct-15 06:29N 40°43' W 074°03'95054888234.6
2017-Oct-15 06:29N 31°21' E 121°31'0 0.0
2017-Oct-15 06:00N 31°21' E 121°31'9505877375.4
2017-Oct-15 05:59N 40°43' W 074°03'0 0.0
2017-Oct-15 05:29N 40°43' W 074°03'0 0.0
2017-Oct-15 04:59N 40°43' W 074°03'0 0.0
2017-Oct-15 04:29N 40°43' W 074°03'0 0.0
2017-Oct-15 03:59N 40°43' W 074°03'0 0.0
2017-Oct-15 03:29N 40°43' W 074°03'0 0.0
2017-Oct-15 02:59N 40°43' W 074°03'950546554.1
2017-Oct-15 02:47N 31°21' E 121°30'950532038.7
2017-Oct-15 02:29N 40°43' W 074°03'0 0.0
2017-Oct-15 01:59N 40°43' W 074°03'0 0.0
2017-Oct-15 01:29N 40°43' W 074°03'0 0.0
2017-Oct-15 00:59N 40°43' W 074°03'0 0.0
2017-Oct-15 00:29N 40°43' W 074°03'0 0.0
2017-Oct-14 23:59N 40°43' W 074°03'0 0.0
2017-Oct-14 23:29N 40°43' W 074°03'0 0.0
2017-Oct-14 22:59N 40°43' W 074°03'0 0.0
2017-Oct-14 22:29N 40°43' W 074°03'0 0.0
2017-Oct-14 21:59N 40°43' W 074°03'0 0.0
2017-Oct-14 21:29N 40°43' W 074°03'0 0.0
2017-Oct-14 20:59N 40°43' W 074°03'0 0.0
2017-Oct-14 20:29N 40°43' W 074°03'0 0.0
2017-Oct-14 19:59N 40°43' W 074°03'0 0.0
2017-Oct-14 19:28N 40°43' W 074°03'0 0.0
2017-Oct-14 18:58N 40°43' W 074°03'0 0.0
2017-Oct-14 18:24N 40°43' W 074°03'0 0.0
2017-Oct-14 17:58N 40°43' W 074°03'0 0.0
2017-Oct-14 17:28N 40°43' W 074°03'0 0.0
2017-Oct-14 16:58N 40°43' W 074°03'0 0.0
2017-Oct-14 16:28N 40°43' W 074°03'0 0.0
2017-Oct-14 15:58N 40°43' W 074°03'0 0.0
2017-Oct-14 15:29N 40°43' W 074°03'0 0.0
2017-Oct-14 14:59N 40°43' W 074°03'0 0.0
2017-Oct-14 14:30N 40°43' W 074°03'0 0.0
2017-Oct-14 13:55N 40°43' W 074°03'0 0.0
2017-Oct-14 13:28N 40°43' W 074°03'0 0.0
2017-Oct-14 12:58N 40°43' W 074°03'0 0.0
2017-Oct-14 12:28N 40°43' W 074°03'0 0.0
2017-Oct-14 11:58N 40°43' W 074°03'0 0.0
2017-Oct-14 11:25N 40°43' W 074°03'0 0.0
2017-Oct-14 10:58N 40°43' W 074°03'0 0.0
2017-Oct-14 10:28N 40°43' W 074°03'0 0.0
2017-Oct-14 09:58N 40°43' W 074°03'0 0.0
2017-Oct-14 09:28N 40°43' W 074°03'0 0.0
2017-Oct-14 08:58N 40°43' W 074°03'0 0.0
2017-Oct-14 08:28N 40°43' W 074°03'0 0.0
2017-Oct-14 07:58N 40°43' W 074°03'0 0.0
2017-Oct-14 07:25N 40°43' W 074°03'0 0.0
2017-Oct-14 06:58N 40°43' W 074°03'0 0.0
2017-Oct-14 06:28N 40°43' W 074°03'0 0.0
2017-Oct-14 05:58N 40°43' W 074°03'0 0.0
2017-Oct-14 05:28N 40°43' W 074°03'0 0.0
2017-Oct-14 04:58N 40°43' W 074°03'0 0.0
2017-Oct-14 04:28N 40°43' W 074°03'0 0.0
2017-Oct-14 03:58N 40°43' W 074°03'0 0.0
2017-Oct-14 03:28N 40°43' W 074°03'0 0.0
2017-Oct-14 02:58N 40°43' W 074°03'0 0.0
2017-Oct-14 02:28N 40°43' W 074°03'0 0.0
2017-Oct-14 01:58N 40°43' W 074°03'0 0.0
2017-Oct-14 01:28N 40°43' W 074°03'0 0.0
2017-Oct-14 00:55N 40°43' W 074°03'0 0.0
2017-Oct-14 00:28N 40°43' W 074°03'0 0.0
2017-Oct-13 23:58N 40°43' W 074°03'0 0.0
2017-Oct-13 23:28N 40°43' W 074°03'0 0.0
2017-Oct-13 22:55N 40°43' W 074°03'0 0.0
2017-Oct-13 22:28N 40°43' W 074°03'0 0.0
2017-Oct-13 22:01N 40°43' W 074°03'0 0.0
2017-Oct-13 21:30N 40°43' W 074°03'0 0.0
2017-Oct-13 21:01N 40°43' W 074°03'0 0.0
2017-Oct-13 20:28N 40°43' W 074°03'0 0.0
2017-Oct-13 20:00N 40°43' W 074°03'0 0.0
2017-Oct-13 19:30N 40°43' W 074°03'0 0.0
2017-Oct-13 19:01N 40°43' W 074°03'0 0.0
2017-Oct-13 18:30N 40°43' W 074°03'0 0.0
2017-Oct-13 17:57N 40°43' W 074°03'0 0.0
2017-Oct-13 17:30N 40°43' W 074°03'0 0.0
2017-Oct-13 17:00N 40°43' W 074°03'0 0.0
2017-Oct-13 16:27N 40°43' W 074°03'0 0.0
2017-Oct-13 16:00N 40°43' W 074°03'0 0.0
2017-Oct-13 15:30N 40°43' W 074°03'0 0.0
2017-Oct-13 15:00N 40°43' W 074°03'0 0.0
2017-Oct-13 14:30N 40°43' W 074°03'0 0.0
2017-Oct-13 14:00N 40°43' W 074°03'0 0.0
2017-Oct-13 13:30N 40°43' W 074°03'0 0.0
2017-Oct-13 13:00N 40°43' W 074°03'0 0.0
2017-Oct-13 12:30N 40°43' W 074°03'0 0.0
2017-Oct-13 12:00N 40°43' W 074°03'0 0.0
2017-Oct-13 11:30N 40°43' W 074°03'0 0.0
2017-Oct-13 11:00N 40°43' W 074°03'0 0.0
2017-Oct-13 10:30N 40°43' W 074°03'0 0.0
2017-Oct-13 10:00N 40°43' W 074°03'0 0.0
2017-Oct-13 09:30N 40°43' W 074°03'0 0.0
2017-Oct-13 09:00N 40°43' W 074°03'0 0.0
2017-Oct-13 08:30N 40°43' W 074°03'0 0.0
2017-Oct-13 08:00N 40°43' W 074°03'0 0.0
2017-Oct-13 07:30N 40°43' W 074°03'0 0.0
2017-Oct-13 07:00N 40°43' W 074°03'0 0.0
2017-Oct-13 06:30N 40°43' W 074°03'0 0.0
2017-Oct-13 06:00N 40°43' W 074°03'0 0.0
2017-Oct-13 05:30N 40°43' W 074°03'0 0.0
2017-Oct-13 05:00N 40°43' W 074°03'0 0.0
2017-Oct-13 04:30N 40°43' W 074°03'0 0.0
2017-Oct-13 04:00N 40°43' W 074°03'0 0.0
2017-Oct-13 03:30N 40°43' W 074°03'0 0.0
2017-Oct-13 02:54N 40°43' W 074°03'0 0.0
2017-Oct-13 02:30N 40°43' W 074°03'949619247.8
2017-Oct-13 02:00N 31°14' E 121°09'94961367365.0
2017-Oct-13 02:00N 40°43' W 074°03'949719283.9
2017-Oct-13 01:30N 31°12' E 121°09'94971424595.0
2017-Oct-13 01:30N 40°43' W 074°03'949919233.0
2017-Oct-13 01:00N 31°11' E 121°09'94991367853.8
2017-Oct-13 01:00N 40°43' W 074°03'0 0.0
2017-Oct-13 00:30N 40°43' W 074°03'95011900158.4
2017-Oct-13 00:29N 31°09' E 121°09'950119204.3
2017-Oct-13 00:00N 40°43' W 074°03'0 0.0
2017-Oct-12 23:30N 40°43' W 074°03'0 0.0
2017-Oct-12 23:00N 40°43' W 074°03'0 0.0
2017-Oct-12 22:30N 40°43' W 074°03'0 0.0
2017-Oct-12 22:00N 40°43' W 074°03'0 0.0
2017-Oct-12 21:30N 40°43' W 074°03'0 0.0
2017-Oct-12 21:00N 40°43' W 074°03'0 0.0
2017-Oct-12 20:30N 40°43' W 074°03'0 0.0
2017-Oct-12 20:00N 40°43' W 074°03'0 0.0
2017-Oct-12 19:30N 40°43' W 074°03'0 0.0
2017-Oct-12 19:00N 40°43' W 074°03'0 0.0
2017-Oct-12 18:30N 40°43' W 074°03'0 0.0
2017-Oct-12 18:00N 40°43' W 074°03'0 0.0
2017-Oct-12 17:30N 40°43' W 074°03'0 0.0
2017-Oct-12 17:00N 40°43' W 074°03'0 0.0
2017-Oct-12 16:30N 40°43' W 074°03'0 0.0
2017-Oct-12 16:00N 40°43' W 074°03'0 0.0
2017-Oct-12 15:30N 40°43' W 074°03'0 0.0
2017-Oct-12 15:00N 40°43' W 074°03'0 0.0
2017-Oct-12 14:30N 40°43' W 074°03'0 0.0
2017-Oct-12 14:00N 40°43' W 074°03'0 0.0
2017-Oct-12 13:30N 40°43' W 074°03'0 0.0
2017-Oct-12 13:00N 40°43' W 074°03'0 0.0
2017-Oct-12 12:27N 40°43' W 074°03'0 0.0
2017-Oct-12 11:54N 40°43' W 074°03'0 0.0
2017-Oct-12 11:30N 40°43' W 074°03'0 0.0
2017-Oct-12 11:00N 40°43' W 074°03'0 0.0
2017-Oct-12 10:30N 40°43' W 074°03'0 0.0
2017-Oct-12 10:00N 40°43' W 074°03'0 0.0
2017-Oct-12 09:30N 40°43' W 074°03'0 0.0
2017-Oct-12 09:00N 40°43' W 074°03'0 0.0
2017-Oct-12 08:30N 40°43' W 074°03'0 0.0
2017-Oct-12 08:00N 40°43' W 074°03'0 0.0
2017-Oct-12 07:30N 40°43' W 074°03'  

Dump ship's entire track history